<?xml version="1.0" encoding="UTF-8" standalone="no" ?>
<gpx xmlns="http://www.topografix.com/GPX/1/1" xmlns:xsi="http://www.w3.org/2001/XMLSchema-instance" xsi:schemaLocation="http://www.topografix.com/GPX/1/1 http://www.topografix.com/GPX/1/1/gpx.xsd" version="1.1" creator="VisuGPX - https://www.visugpx.com">
  <metadata>
    <name>Saint Auban entre la colle d'arpille et le pensier</name>
    <desc><![CDATA[Saint Auban entre la colle d'arpille et le pensier]]></desc>
  </metadata>
  <trk>
    <name><![CDATA[Saint Auban entre la colle d'arpille et le pensier_1]]></name>
    <trkseg>
      <trkpt lat="43.82682" lon="6.74114">
        <ele>1073.1</ele>
        <time>2019-07-01T09:00:17.372Z</time>
      </trkpt>
      <trkpt lat="43.82799" lon="6.74108">
        <ele>1071</ele>
        <time>2019-07-01T09:00:18.372Z</time>
      </trkpt>
      <trkpt lat="43.82865" lon="6.74091">
        <ele>1072</ele>
        <time>2019-07-01T09:00:19.372Z</time>
      </trkpt>
      <trkpt lat="43.82895" lon="6.7407">
        <ele>1077</ele>
        <time>2019-07-01T09:00:20.372Z</time>
      </trkpt>
      <trkpt lat="43.82919" lon="6.74048">
        <ele>1077</ele>
        <time>2019-07-01T09:00:21.372Z</time>
      </trkpt>
      <trkpt lat="43.82952" lon="6.74026">
        <ele>1079</ele>
        <time>2019-07-01T09:00:22.372Z</time>
      </trkpt>
      <trkpt lat="43.82988" lon="6.7401">
        <ele>1079</ele>
        <time>2019-07-01T09:00:23.372Z</time>
      </trkpt>
      <trkpt lat="43.83057" lon="6.74011">
        <ele>1072</ele>
        <time>2019-07-01T09:00:24.372Z</time>
      </trkpt>
      <trkpt lat="43.83125" lon="6.73983">
        <ele>1072.2</ele>
        <time>2019-07-01T09:00:25.372Z</time>
      </trkpt>
      <trkpt lat="43.83144" lon="6.7398">
        <ele>1072</ele>
        <time>2019-07-01T09:00:26.372Z</time>
      </trkpt>
      <trkpt lat="43.83163" lon="6.7398">
        <ele>1070</ele>
        <time>2019-07-01T09:00:27.372Z</time>
      </trkpt>
      <trkpt lat="43.83197" lon="6.74013">
        <ele>1067</ele>
        <time>2019-07-01T09:00:28.372Z</time>
      </trkpt>
      <trkpt lat="43.8326" lon="6.74067">
        <ele>1071.8</ele>
        <time>2019-07-01T09:00:29.372Z</time>
      </trkpt>
      <trkpt lat="43.83303" lon="6.74117">
        <ele>1069.3</ele>
        <time>2019-07-01T09:00:30.372Z</time>
      </trkpt>
      <trkpt lat="43.83318" lon="6.74157">
        <ele>1069.4</ele>
        <time>2019-07-01T09:00:31.372Z</time>
      </trkpt>
      <trkpt lat="43.83319" lon="6.74192">
        <ele>1064</ele>
        <time>2019-07-01T09:00:32.372Z</time>
      </trkpt>
      <trkpt lat="43.83336" lon="6.74224">
        <ele>1065</ele>
        <time>2019-07-01T09:00:33.372Z</time>
      </trkpt>
      <trkpt lat="43.83349" lon="6.74248">
        <ele>1064</ele>
        <time>2019-07-01T09:00:34.372Z</time>
      </trkpt>
      <trkpt lat="43.83356" lon="6.74283">
        <ele>1058</ele>
        <time>2019-07-01T09:00:35.372Z</time>
      </trkpt>
      <trkpt lat="43.83369" lon="6.74311">
        <ele>1057</ele>
        <time>2019-07-01T09:00:36.372Z</time>
      </trkpt>
      <trkpt lat="43.83356" lon="6.74342">
        <ele>1051</ele>
        <time>2019-07-01T09:00:37.372Z</time>
      </trkpt>
      <trkpt lat="43.83349" lon="6.74366">
        <ele>1051</ele>
        <time>2019-07-01T09:00:38.372Z</time>
      </trkpt>
      <trkpt lat="43.83345" lon="6.74389">
        <ele>1050</ele>
        <time>2019-07-01T09:00:39.372Z</time>
      </trkpt>
      <trkpt lat="43.83369" lon="6.74472">
        <ele>1048</ele>
        <time>2019-07-01T09:00:40.372Z</time>
      </trkpt>
      <trkpt lat="43.83434" lon="6.74623">
        <ele>1048</ele>
        <time>2019-07-01T09:00:41.372Z</time>
      </trkpt>
      <trkpt lat="43.83457" lon="6.74647">
        <ele>1048</ele>
        <time>2019-07-01T09:00:42.372Z</time>
      </trkpt>
      <trkpt lat="43.83483" lon="6.74732">
        <ele>1050</ele>
        <time>2019-07-01T09:00:43.372Z</time>
      </trkpt>
      <trkpt lat="43.8351" lon="6.74805">
        <ele>1047</ele>
        <time>2019-07-01T09:00:44.372Z</time>
      </trkpt>
      <trkpt lat="43.83525" lon="6.74886">
        <ele>1047</ele>
        <time>2019-07-01T09:00:45.372Z</time>
      </trkpt>
      <trkpt lat="43.83568" lon="6.74982">
        <ele>1047</ele>
        <time>2019-07-01T09:00:46.372Z</time>
      </trkpt>
      <trkpt lat="43.83595" lon="6.74991">
        <ele>1048</ele>
        <time>2019-07-01T09:00:47.372Z</time>
      </trkpt>
      <trkpt lat="43.8362" lon="6.74834">
        <ele>1048</ele>
        <time>2019-07-01T09:00:48.372Z</time>
      </trkpt>
      <trkpt lat="43.83645" lon="6.74729">
        <ele>1048</ele>
        <time>2019-07-01T09:00:49.372Z</time>
      </trkpt>
      <trkpt lat="43.83688" lon="6.74673">
        <ele>1057</ele>
        <time>2019-07-01T09:00:50.372Z</time>
      </trkpt>
      <trkpt lat="43.83712" lon="6.74621">
        <ele>1056</ele>
        <time>2019-07-01T09:00:51.372Z</time>
      </trkpt>
      <trkpt lat="43.83725" lon="6.74546">
        <ele>1049</ele>
        <time>2019-07-01T09:00:52.372Z</time>
      </trkpt>
      <trkpt lat="43.83747" lon="6.74503">
        <ele>1044</ele>
        <time>2019-07-01T09:00:53.372Z</time>
      </trkpt>
      <trkpt lat="43.83778" lon="6.74485">
        <ele>1044</ele>
        <time>2019-07-01T09:00:54.372Z</time>
      </trkpt>
      <trkpt lat="43.83798" lon="6.74508">
        <ele>1053.7</ele>
        <time>2019-07-01T09:00:55.372Z</time>
      </trkpt>
      <trkpt lat="43.83831" lon="6.74507">
        <ele>1053.2</ele>
        <time>2019-07-01T09:00:56.372Z</time>
      </trkpt>
      <trkpt lat="43.83878" lon="6.74528">
        <ele>1057.3</ele>
        <time>2019-07-01T09:00:57.372Z</time>
      </trkpt>
      <trkpt lat="43.83907" lon="6.7457">
        <ele>1061</ele>
        <time>2019-07-01T09:00:58.372Z</time>
      </trkpt>
      <trkpt lat="43.83934" lon="6.74651">
        <ele>1068.2</ele>
        <time>2019-07-01T09:00:59.372Z</time>
      </trkpt>
      <trkpt lat="43.83948" lon="6.74706">
        <ele>1075</ele>
        <time>2019-07-01T09:01:00.372Z</time>
      </trkpt>
      <trkpt lat="43.83964" lon="6.74751">
        <ele>1083.3</ele>
        <time>2019-07-01T09:01:01.372Z</time>
      </trkpt>
      <trkpt lat="43.83988" lon="6.74832">
        <ele>1085</ele>
        <time>2019-07-01T09:01:02.372Z</time>
      </trkpt>
      <trkpt lat="43.84012" lon="6.74916">
        <ele>1087.3</ele>
        <time>2019-07-01T09:01:03.372Z</time>
      </trkpt>
      <trkpt lat="43.84033" lon="6.7498">
        <ele>1089.2</ele>
        <time>2019-07-01T09:01:04.372Z</time>
      </trkpt>
      <trkpt lat="43.8404" lon="6.75007">
        <ele>1093.5</ele>
        <time>2019-07-01T09:01:05.372Z</time>
      </trkpt>
      <trkpt lat="43.84045" lon="6.75035">
        <ele>1093</ele>
        <time>2019-07-01T09:01:06.372Z</time>
      </trkpt>
      <trkpt lat="43.84047" lon="6.75077">
        <ele>1094</ele>
        <time>2019-07-01T09:01:07.372Z</time>
      </trkpt>
      <trkpt lat="43.84031" lon="6.75127">
        <ele>1103.1</ele>
        <time>2019-07-01T09:01:08.372Z</time>
      </trkpt>
      <trkpt lat="43.83993" lon="6.75149">
        <ele>1123</ele>
        <time>2019-07-01T09:01:09.372Z</time>
      </trkpt>
      <trkpt lat="43.84015" lon="6.75221">
        <ele>1114.4</ele>
        <time>2019-07-01T09:01:10.372Z</time>
      </trkpt>
      <trkpt lat="43.84016" lon="6.75318">
        <ele>1122.2</ele>
        <time>2019-07-01T09:01:11.372Z</time>
      </trkpt>
      <trkpt lat="43.84015" lon="6.75423">
        <ele>1127.4</ele>
        <time>2019-07-01T09:01:12.372Z</time>
      </trkpt>
      <trkpt lat="43.84008" lon="6.75501">
        <ele>1128.3</ele>
        <time>2019-07-01T09:01:13.372Z</time>
      </trkpt>
      <trkpt lat="43.83979" lon="6.75579">
        <ele>1131</ele>
        <time>2019-07-01T09:01:14.372Z</time>
      </trkpt>
      <trkpt lat="43.83974" lon="6.75617">
        <ele>1128.4</ele>
        <time>2019-07-01T09:01:15.372Z</time>
      </trkpt>
      <trkpt lat="43.8397" lon="6.75656">
        <ele>1128</ele>
        <time>2019-07-01T09:01:16.372Z</time>
      </trkpt>
      <trkpt lat="43.83962" lon="6.75722">
        <ele>1128</ele>
        <time>2019-07-01T09:01:17.372Z</time>
      </trkpt>
      <trkpt lat="43.83954" lon="6.75788">
        <ele>1132</ele>
        <time>2019-07-01T09:01:18.372Z</time>
      </trkpt>
      <trkpt lat="43.83951" lon="6.75855">
        <ele>1137</ele>
        <time>2019-07-01T09:01:19.372Z</time>
      </trkpt>
      <trkpt lat="43.83957" lon="6.75937">
        <ele>1144</ele>
        <time>2019-07-01T09:01:20.372Z</time>
      </trkpt>
      <trkpt lat="43.83951" lon="6.76104">
        <ele>1159</ele>
        <time>2019-07-01T09:01:21.372Z</time>
      </trkpt>
      <trkpt lat="43.83947" lon="6.76177">
        <ele>1165</ele>
        <time>2019-07-01T09:01:22.372Z</time>
      </trkpt>
      <trkpt lat="43.83953" lon="6.76301">
        <ele>1170</ele>
        <time>2019-07-01T09:01:23.372Z</time>
      </trkpt>
      <trkpt lat="43.83964" lon="6.76511">
        <ele>1191</ele>
        <time>2019-07-01T09:01:24.372Z</time>
      </trkpt>
      <trkpt lat="43.83974" lon="6.76667">
        <ele>1207</ele>
        <time>2019-07-01T09:01:25.372Z</time>
      </trkpt>
      <trkpt lat="43.83995" lon="6.76785">
        <ele>1223</ele>
        <time>2019-07-01T09:01:26.372Z</time>
      </trkpt>
      <trkpt lat="43.84042" lon="6.76872">
        <ele>1217</ele>
        <time>2019-07-01T09:01:27.372Z</time>
      </trkpt>
      <trkpt lat="43.8406" lon="6.76964">
        <ele>1228</ele>
        <time>2019-07-01T09:01:28.372Z</time>
      </trkpt>
      <trkpt lat="43.84086" lon="6.77022">
        <ele>1224</ele>
        <time>2019-07-01T09:01:29.372Z</time>
      </trkpt>
      <trkpt lat="43.84102" lon="6.771">
        <ele>1239</ele>
        <time>2019-07-01T09:01:30.372Z</time>
      </trkpt>
      <trkpt lat="43.84129" lon="6.77182">
        <ele>1250</ele>
        <time>2019-07-01T09:01:31.372Z</time>
      </trkpt>
      <trkpt lat="43.84112" lon="6.7718">
        <ele>1252</ele>
        <time>2019-07-01T09:01:32.372Z</time>
      </trkpt>
      <trkpt lat="43.84086" lon="6.771">
        <ele>1239</ele>
        <time>2019-07-01T09:01:33.372Z</time>
      </trkpt>
      <trkpt lat="43.84009" lon="6.76968">
        <ele>1237</ele>
        <time>2019-07-01T09:01:34.372Z</time>
      </trkpt>
      <trkpt lat="43.8393" lon="6.76884">
        <ele>1241</ele>
        <time>2019-07-01T09:01:35.372Z</time>
      </trkpt>
      <trkpt lat="43.8396" lon="6.77002">
        <ele>1253</ele>
        <time>2019-07-01T09:01:36.372Z</time>
      </trkpt>
      <trkpt lat="43.83995" lon="6.77094">
        <ele>1263</ele>
        <time>2019-07-01T09:01:37.372Z</time>
      </trkpt>
      <trkpt lat="43.84047" lon="6.77172">
        <ele>1266</ele>
        <time>2019-07-01T09:01:38.372Z</time>
      </trkpt>
      <trkpt lat="43.84083" lon="6.7726">
        <ele>1268</ele>
        <time>2019-07-01T09:01:39.372Z</time>
      </trkpt>
      <trkpt lat="43.84109" lon="6.77332">
        <ele>1263</ele>
        <time>2019-07-01T09:01:40.372Z</time>
      </trkpt>
      <trkpt lat="43.84117" lon="6.7739">
        <ele>1266</ele>
        <time>2019-07-01T09:01:41.372Z</time>
      </trkpt>
      <trkpt lat="43.84094" lon="6.77428">
        <ele>1270</ele>
        <time>2019-07-01T09:01:42.372Z</time>
      </trkpt>
      <trkpt lat="43.84087" lon="6.7746">
        <ele>1272</ele>
        <time>2019-07-01T09:01:43.372Z</time>
      </trkpt>
      <trkpt lat="43.84116" lon="6.77496">
        <ele>1275</ele>
        <time>2019-07-01T09:01:44.372Z</time>
      </trkpt>
      <trkpt lat="43.84129" lon="6.77554">
        <ele>1282</ele>
        <time>2019-07-01T09:01:45.372Z</time>
      </trkpt>
      <trkpt lat="43.84154" lon="6.7761">
        <ele>1291</ele>
        <time>2019-07-01T09:01:46.372Z</time>
      </trkpt>
      <trkpt lat="43.84099" lon="6.7763">
        <ele>1286</ele>
        <time>2019-07-01T09:01:47.372Z</time>
      </trkpt>
      <trkpt lat="43.84048" lon="6.77616">
        <ele>1268</ele>
        <time>2019-07-01T09:01:48.372Z</time>
      </trkpt>
      <trkpt lat="43.84051" lon="6.77664">
        <ele>1271</ele>
        <time>2019-07-01T09:01:49.372Z</time>
      </trkpt>
      <trkpt lat="43.84117" lon="6.77736">
        <ele>1296</ele>
        <time>2019-07-01T09:01:50.372Z</time>
      </trkpt>
      <trkpt lat="43.8411" lon="6.77756">
        <ele>1300</ele>
        <time>2019-07-01T09:01:51.372Z</time>
      </trkpt>
      <trkpt lat="43.84076" lon="6.77754">
        <ele>1286</ele>
        <time>2019-07-01T09:01:52.372Z</time>
      </trkpt>
      <trkpt lat="43.84047" lon="6.77774">
        <ele>1281</ele>
        <time>2019-07-01T09:01:53.372Z</time>
      </trkpt>
      <trkpt lat="43.84031" lon="6.77837">
        <ele>1289</ele>
        <time>2019-07-01T09:01:54.372Z</time>
      </trkpt>
      <trkpt lat="43.84029" lon="6.77883">
        <ele>1292</ele>
        <time>2019-07-01T09:01:55.372Z</time>
      </trkpt>
      <trkpt lat="43.84044" lon="6.77929">
        <ele>1299</ele>
        <time>2019-07-01T09:01:56.372Z</time>
      </trkpt>
      <trkpt lat="43.84044" lon="6.77983">
        <ele>1299</ele>
        <time>2019-07-01T09:01:57.372Z</time>
      </trkpt>
      <trkpt lat="43.84038" lon="6.78031">
        <ele>1297</ele>
        <time>2019-07-01T09:01:58.372Z</time>
      </trkpt>
      <trkpt lat="43.84058" lon="6.78063">
        <ele>1300</ele>
        <time>2019-07-01T09:01:59.372Z</time>
      </trkpt>
      <trkpt lat="43.84071" lon="6.78089">
        <ele>1305</ele>
        <time>2019-07-01T09:02:00.372Z</time>
      </trkpt>
      <trkpt lat="43.84054" lon="6.78103">
        <ele>1302</ele>
        <time>2019-07-01T09:02:01.372Z</time>
      </trkpt>
      <trkpt lat="43.84032" lon="6.78095">
        <ele>1298</ele>
        <time>2019-07-01T09:02:02.372Z</time>
      </trkpt>
      <trkpt lat="43.84011" lon="6.78167">
        <ele>1300</ele>
        <time>2019-07-01T09:02:03.372Z</time>
      </trkpt>
      <trkpt lat="43.83987" lon="6.78211">
        <ele>1290</ele>
        <time>2019-07-01T09:02:04.372Z</time>
      </trkpt>
      <trkpt lat="43.83976" lon="6.78247">
        <ele>1292</ele>
        <time>2019-07-01T09:02:05.372Z</time>
      </trkpt>
      <trkpt lat="43.83973" lon="6.78295">
        <ele>1303</ele>
        <time>2019-07-01T09:02:06.372Z</time>
      </trkpt>
      <trkpt lat="43.83905" lon="6.78361">
        <ele>1291</ele>
        <time>2019-07-01T09:02:07.372Z</time>
      </trkpt>
      <trkpt lat="43.83894" lon="6.78417">
        <ele>1297</ele>
        <time>2019-07-01T09:02:08.372Z</time>
      </trkpt>
      <trkpt lat="43.83918" lon="6.78465">
        <ele>1320</ele>
        <time>2019-07-01T09:02:09.372Z</time>
      </trkpt>
      <trkpt lat="43.83909" lon="6.78549">
        <ele>1308</ele>
        <time>2019-07-01T09:02:10.372Z</time>
      </trkpt>
      <trkpt lat="43.83879" lon="6.78575">
        <ele>1305</ele>
        <time>2019-07-01T09:02:11.372Z</time>
      </trkpt>
      <trkpt lat="43.83865" lon="6.78605">
        <ele>1313.8</ele>
        <time>2019-07-01T09:02:12.372Z</time>
      </trkpt>
      <trkpt lat="43.8385" lon="6.78621">
        <ele>1313</ele>
        <time>2019-07-01T09:02:13.372Z</time>
      </trkpt>
      <trkpt lat="43.8384" lon="6.78665">
        <ele>1312</ele>
        <time>2019-07-01T09:02:14.372Z</time>
      </trkpt>
      <trkpt lat="43.8382" lon="6.78731">
        <ele>1302</ele>
        <time>2019-07-01T09:02:15.372Z</time>
      </trkpt>
      <trkpt lat="43.8384" lon="6.78759">
        <ele>1321</ele>
        <time>2019-07-01T09:02:16.372Z</time>
      </trkpt>
      <trkpt lat="43.83849" lon="6.788">
        <ele>1326</ele>
        <time>2019-07-01T09:02:17.372Z</time>
      </trkpt>
      <trkpt lat="43.83837" lon="6.7884">
        <ele>1312</ele>
        <time>2019-07-01T09:02:18.372Z</time>
      </trkpt>
      <trkpt lat="43.8384" lon="6.78872">
        <ele>1318</ele>
        <time>2019-07-01T09:02:19.372Z</time>
      </trkpt>
      <trkpt lat="43.83855" lon="6.78914">
        <ele>1316</ele>
        <time>2019-07-01T09:02:20.372Z</time>
      </trkpt>
      <trkpt lat="43.83859" lon="6.7896">
        <ele>1318</ele>
        <time>2019-07-01T09:02:21.372Z</time>
      </trkpt>
      <trkpt lat="43.83852" lon="6.7901">
        <ele>1316</ele>
        <time>2019-07-01T09:02:22.372Z</time>
      </trkpt>
      <trkpt lat="43.83836" lon="6.79049">
        <ele>1318.9</ele>
        <time>2019-07-01T09:02:23.372Z</time>
      </trkpt>
      <trkpt lat="43.83827" lon="6.79109">
        <ele>1303.4</ele>
        <time>2019-07-01T09:02:24.372Z</time>
      </trkpt>
      <trkpt lat="43.83804" lon="6.79192">
        <ele>1310.1</ele>
        <time>2019-07-01T09:02:25.372Z</time>
      </trkpt>
      <trkpt lat="43.83788" lon="6.79235">
        <ele>1308.5</ele>
        <time>2019-07-01T09:02:26.372Z</time>
      </trkpt>
      <trkpt lat="43.83788" lon="6.79296">
        <ele>1319</ele>
        <time>2019-07-01T09:02:27.372Z</time>
      </trkpt>
      <trkpt lat="43.83759" lon="6.79359">
        <ele>1329</ele>
        <time>2019-07-01T09:02:28.372Z</time>
      </trkpt>
      <trkpt lat="43.83716" lon="6.79399">
        <ele>1321</ele>
        <time>2019-07-01T09:02:29.372Z</time>
      </trkpt>
      <trkpt lat="43.83638" lon="6.7952">
        <ele>1340</ele>
        <time>2019-07-01T09:02:30.372Z</time>
      </trkpt>
      <trkpt lat="43.83584" lon="6.79597">
        <ele>1351</ele>
        <time>2019-07-01T09:02:31.372Z</time>
      </trkpt>
      <trkpt lat="43.83526" lon="6.79705">
        <ele>1357.4</ele>
        <time>2019-07-01T09:02:32.372Z</time>
      </trkpt>
      <trkpt lat="43.83502" lon="6.79734">
        <ele>1355</ele>
        <time>2019-07-01T09:02:33.372Z</time>
      </trkpt>
      <trkpt lat="43.83508" lon="6.79759">
        <ele>1359</ele>
        <time>2019-07-01T09:02:34.372Z</time>
      </trkpt>
      <trkpt lat="43.83448" lon="6.7971">
        <ele>1333</ele>
        <time>2019-07-01T09:02:35.372Z</time>
      </trkpt>
      <trkpt lat="43.83421" lon="6.79683">
        <ele>1330</ele>
        <time>2019-07-01T09:02:36.372Z</time>
      </trkpt>
      <trkpt lat="43.83386" lon="6.79693">
        <ele>1320</ele>
        <time>2019-07-01T09:02:37.372Z</time>
      </trkpt>
      <trkpt lat="43.83391" lon="6.79776">
        <ele>1313</ele>
        <time>2019-07-01T09:02:38.372Z</time>
      </trkpt>
      <trkpt lat="43.83387" lon="6.79803">
        <ele>1312</ele>
        <time>2019-07-01T09:02:39.372Z</time>
      </trkpt>
      <trkpt lat="43.83349" lon="6.79826">
        <ele>1303</ele>
        <time>2019-07-01T09:02:40.372Z</time>
      </trkpt>
      <trkpt lat="43.83266" lon="6.79831">
        <ele>1279</ele>
        <time>2019-07-01T09:02:41.372Z</time>
      </trkpt>
      <trkpt lat="43.83192" lon="6.79836">
        <ele>1263</ele>
        <time>2019-07-01T09:02:42.372Z</time>
      </trkpt>
      <trkpt lat="43.8309" lon="6.7979">
        <ele>1230</ele>
        <time>2019-07-01T09:02:43.372Z</time>
      </trkpt>
      <trkpt lat="43.83042" lon="6.79746">
        <ele>1209</ele>
        <time>2019-07-01T09:02:44.372Z</time>
      </trkpt>
      <trkpt lat="43.83005" lon="6.79673">
        <ele>1201</ele>
        <time>2019-07-01T09:02:45.372Z</time>
      </trkpt>
      <trkpt lat="43.82971" lon="6.79663">
        <ele>1191</ele>
        <time>2019-07-01T09:02:46.372Z</time>
      </trkpt>
      <trkpt lat="43.8293" lon="6.79667">
        <ele>1190</ele>
        <time>2019-07-01T09:02:47.372Z</time>
      </trkpt>
      <trkpt lat="43.82893" lon="6.79681">
        <ele>1181</ele>
        <time>2019-07-01T09:02:48.372Z</time>
      </trkpt>
      <trkpt lat="43.82854" lon="6.79717">
        <ele>1177</ele>
        <time>2019-07-01T09:02:49.372Z</time>
      </trkpt>
      <trkpt lat="43.82816" lon="6.79738">
        <ele>1167</ele>
        <time>2019-07-01T09:02:50.372Z</time>
      </trkpt>
      <trkpt lat="43.82754" lon="6.79776">
        <ele>1159</ele>
        <time>2019-07-01T09:02:51.372Z</time>
      </trkpt>
      <trkpt lat="43.82726" lon="6.79797">
        <ele>1150</ele>
        <time>2019-07-01T09:02:52.372Z</time>
      </trkpt>
      <trkpt lat="43.82706" lon="6.79834">
        <ele>1147</ele>
        <time>2019-07-01T09:02:53.372Z</time>
      </trkpt>
      <trkpt lat="43.82667" lon="6.79879">
        <ele>1145</ele>
        <time>2019-07-01T09:02:54.372Z</time>
      </trkpt>
      <trkpt lat="43.82643" lon="6.79904">
        <ele>1138</ele>
        <time>2019-07-01T09:02:55.372Z</time>
      </trkpt>
      <trkpt lat="43.82607" lon="6.7992">
        <ele>1135</ele>
        <time>2019-07-01T09:02:56.372Z</time>
      </trkpt>
      <trkpt lat="43.82599" lon="6.79711">
        <ele>1134</ele>
        <time>2019-07-01T09:02:57.372Z</time>
      </trkpt>
      <trkpt lat="43.82589" lon="6.79487">
        <ele>1128</ele>
        <time>2019-07-01T09:02:58.372Z</time>
      </trkpt>
      <trkpt lat="43.82538" lon="6.79258">
        <ele>1117</ele>
        <time>2019-07-01T09:02:59.372Z</time>
      </trkpt>
      <trkpt lat="43.82513" lon="6.79155">
        <ele>1110</ele>
        <time>2019-07-01T09:03:00.372Z</time>
      </trkpt>
      <trkpt lat="43.82479" lon="6.79035">
        <ele>1108.7</ele>
        <time>2019-07-01T09:03:01.372Z</time>
      </trkpt>
      <trkpt lat="43.82496" lon="6.78871">
        <ele>1107</ele>
        <time>2019-07-01T09:03:02.372Z</time>
      </trkpt>
      <trkpt lat="43.82538" lon="6.78713">
        <ele>1105</ele>
        <time>2019-07-01T09:03:03.372Z</time>
      </trkpt>
      <trkpt lat="43.82546" lon="6.78558">
        <ele>1101</ele>
        <time>2019-07-01T09:03:04.372Z</time>
      </trkpt>
      <trkpt lat="43.82524" lon="6.78202">
        <ele>1103</ele>
        <time>2019-07-01T09:03:05.372Z</time>
      </trkpt>
      <trkpt lat="43.82556" lon="6.78112">
        <ele>1101</ele>
        <time>2019-07-01T09:03:06.372Z</time>
      </trkpt>
      <trkpt lat="43.82564" lon="6.78037">
        <ele>1099</ele>
        <time>2019-07-01T09:03:07.372Z</time>
      </trkpt>
      <trkpt lat="43.82547" lon="6.77927">
        <ele>1098</ele>
        <time>2019-07-01T09:03:08.372Z</time>
      </trkpt>
      <trkpt lat="43.82563" lon="6.77696">
        <ele>1092</ele>
        <time>2019-07-01T09:03:09.372Z</time>
      </trkpt>
      <trkpt lat="43.82541" lon="6.77492">
        <ele>1088</ele>
        <time>2019-07-01T09:03:10.372Z</time>
      </trkpt>
      <trkpt lat="43.82547" lon="6.77339">
        <ele>1086</ele>
        <time>2019-07-01T09:03:11.372Z</time>
      </trkpt>
      <trkpt lat="43.82555" lon="6.77187">
        <ele>1080</ele>
        <time>2019-07-01T09:03:12.372Z</time>
      </trkpt>
      <trkpt lat="43.82578" lon="6.7691">
        <ele>1079.9</ele>
        <time>2019-07-01T09:03:13.372Z</time>
      </trkpt>
      <trkpt lat="43.82588" lon="6.76723">
        <ele>1077.5</ele>
        <time>2019-07-01T09:03:14.372Z</time>
      </trkpt>
      <trkpt lat="43.82584" lon="6.76626">
        <ele>1075</ele>
        <time>2019-07-01T09:03:15.372Z</time>
      </trkpt>
      <trkpt lat="43.82512" lon="6.76456">
        <ele>1078</ele>
        <time>2019-07-01T09:03:16.372Z</time>
      </trkpt>
      <trkpt lat="43.82469" lon="6.76251">
        <ele>1085</ele>
        <time>2019-07-01T09:03:17.372Z</time>
      </trkpt>
      <trkpt lat="43.82438" lon="6.76142">
        <ele>1087</ele>
        <time>2019-07-01T09:03:18.372Z</time>
      </trkpt>
      <trkpt lat="43.82409" lon="6.76086">
        <ele>1088</ele>
        <time>2019-07-01T09:03:19.372Z</time>
      </trkpt>
      <trkpt lat="43.82374" lon="6.76025">
        <ele>1088</ele>
        <time>2019-07-01T09:03:20.372Z</time>
      </trkpt>
      <trkpt lat="43.82356" lon="6.75972">
        <ele>1090</ele>
        <time>2019-07-01T09:03:21.372Z</time>
      </trkpt>
      <trkpt lat="43.82297" lon="6.75881">
        <ele>1086</ele>
        <time>2019-07-01T09:03:22.372Z</time>
      </trkpt>
      <trkpt lat="43.82271" lon="6.75808">
        <ele>1087</ele>
        <time>2019-07-01T09:03:23.372Z</time>
      </trkpt>
      <trkpt lat="43.82264" lon="6.75722">
        <ele>1091</ele>
        <time>2019-07-01T09:03:24.372Z</time>
      </trkpt>
      <trkpt lat="43.82241" lon="6.75644">
        <ele>1092</ele>
        <time>2019-07-01T09:03:25.372Z</time>
      </trkpt>
      <trkpt lat="43.82233" lon="6.7556">
        <ele>1093</ele>
        <time>2019-07-01T09:03:26.372Z</time>
      </trkpt>
      <trkpt lat="43.82233" lon="6.75419">
        <ele>1093</ele>
        <time>2019-07-01T09:03:27.372Z</time>
      </trkpt>
      <trkpt lat="43.82244" lon="6.75274">
        <ele>1090</ele>
        <time>2019-07-01T09:03:28.372Z</time>
      </trkpt>
      <trkpt lat="43.82251" lon="6.75193">
        <ele>1093</ele>
        <time>2019-07-01T09:03:29.372Z</time>
      </trkpt>
      <trkpt lat="43.82258" lon="6.75007">
        <ele>1088</ele>
        <time>2019-07-01T09:03:30.372Z</time>
      </trkpt>
      <trkpt lat="43.82268" lon="6.74951">
        <ele>1087</ele>
        <time>2019-07-01T09:03:31.372Z</time>
      </trkpt>
      <trkpt lat="43.8227" lon="6.74855">
        <ele>1083</ele>
        <time>2019-07-01T09:03:32.372Z</time>
      </trkpt>
      <trkpt lat="43.82297" lon="6.7479">
        <ele>1080</ele>
        <time>2019-07-01T09:03:33.372Z</time>
      </trkpt>
      <trkpt lat="43.82313" lon="6.74747">
        <ele>1079</ele>
        <time>2019-07-01T09:03:34.372Z</time>
      </trkpt>
      <trkpt lat="43.82388" lon="6.74655">
        <ele>1080</ele>
        <time>2019-07-01T09:03:35.372Z</time>
      </trkpt>
      <trkpt lat="43.82419" lon="6.74571">
        <ele>1077</ele>
        <time>2019-07-01T09:03:36.372Z</time>
      </trkpt>
      <trkpt lat="43.82462" lon="6.74521">
        <ele>1076</ele>
        <time>2019-07-01T09:03:37.372Z</time>
      </trkpt>
      <trkpt lat="43.82488" lon="6.74459">
        <ele>1070</ele>
        <time>2019-07-01T09:03:38.372Z</time>
      </trkpt>
      <trkpt lat="43.82481" lon="6.74403">
        <ele>1067</ele>
        <time>2019-07-01T09:03:39.372Z</time>
      </trkpt>
      <trkpt lat="43.82469" lon="6.74347">
        <ele>1067</ele>
        <time>2019-07-01T09:03:40.372Z</time>
      </trkpt>
      <trkpt lat="43.82469" lon="6.74276">
        <ele>1070</ele>
        <time>2019-07-01T09:03:41.372Z</time>
      </trkpt>
      <trkpt lat="43.82469" lon="6.74177">
        <ele>1077</ele>
        <time>2019-07-01T09:03:42.372Z</time>
      </trkpt>
      <trkpt lat="43.82525" lon="6.74171">
        <ele>1077</ele>
        <time>2019-07-01T09:03:43.372Z</time>
      </trkpt>
      <trkpt lat="43.8261" lon="6.74137">
        <ele>1075</ele>
        <time>2019-07-01T09:03:44.372Z</time>
      </trkpt>
      <trkpt lat="43.82667" lon="6.74124">
        <ele>1072.5</ele>
        <time>2019-07-01T09:03:45.372Z</time>
      </trkpt>
      <trkpt lat="43.82665" lon="6.74111">
        <ele>1075.3</ele>
        <time>2019-07-01T09:03:46.372Z</time>
      </trkpt>
      <trkpt lat="43.82664" lon="6.74101">
        <ele>1075</ele>
        <time>2019-07-01T09:03:47.372Z</time>
      </trkpt>
      <trkpt lat="43.82668" lon="6.74093">
        <ele>1076</ele>
        <time>2019-07-01T09:03:48.372Z</time>
      </trkpt>
      <trkpt lat="43.82682" lon="6.74088">
        <ele>1077</ele>
        <time>2019-07-01T09:03:49.372Z</time>
      </trkpt>
      <trkpt lat="43.82719" lon="6.74083">
        <ele>1078</ele>
        <time>2019-07-01T09:03:50.372Z</time>
      </trkpt>
      <trkpt lat="43.82739" lon="6.74082">
        <ele>1079</ele>
        <time>2019-07-01T09:03:51.372Z</time>
      </trkpt>
      <trkpt lat="43.82756" lon="6.74073">
        <ele>1082</ele>
        <time>2019-07-01T09:03:52.372Z</time>
      </trkpt>
      <trkpt lat="43.82775" lon="6.74057">
        <ele>1086</ele>
        <time>2019-07-01T09:03:53.372Z</time>
      </trkpt>
      <trkpt lat="43.82775" lon="6.74058">
        <ele>1086</ele>
        <time>2019-07-01T09:03:54.372Z</time>
      </trkpt>
      <trkpt lat="43.82796" lon="6.74046">
        <ele>1088</ele>
        <time>2019-07-01T09:03:55.372Z</time>
      </trkpt>
      <trkpt lat="43.82814" lon="6.74033">
        <ele>1091</ele>
        <time>2019-07-01T09:03:56.372Z</time>
      </trkpt>
      <trkpt lat="43.82821" lon="6.74023">
        <ele>1095</ele>
        <time>2019-07-01T09:03:57.372Z</time>
      </trkpt>
      <trkpt lat="43.8283" lon="6.74016">
        <ele>1096</ele>
        <time>2019-07-01T09:03:58.372Z</time>
      </trkpt>
      <trkpt lat="43.82841" lon="6.7401">
        <ele>1097</ele>
        <time>2019-07-01T09:03:59.372Z</time>
      </trkpt>
      <trkpt lat="43.82852" lon="6.73995">
        <ele>1101</ele>
        <time>2019-07-01T09:04:00.372Z</time>
      </trkpt>
      <trkpt lat="43.82869" lon="6.73981">
        <ele>1105</ele>
        <time>2019-07-01T09:04:01.372Z</time>
      </trkpt>
      <trkpt lat="43.8289" lon="6.73969">
        <ele>1107</ele>
        <time>2019-07-01T09:04:02.372Z</time>
      </trkpt>
      <trkpt lat="43.8291" lon="6.7396">
        <ele>1109</ele>
        <time>2019-07-01T09:04:03.372Z</time>
      </trkpt>
      <trkpt lat="43.82918" lon="6.73952">
        <ele>1111</ele>
        <time>2019-07-01T09:04:04.372Z</time>
      </trkpt>
      <trkpt lat="43.82949" lon="6.73931">
        <ele>1116</ele>
        <time>2019-07-01T09:04:05.372Z</time>
      </trkpt>
      <trkpt lat="43.82949" lon="6.73931">
        <ele>1116</ele>
        <time>2019-07-01T09:04:06.372Z</time>
      </trkpt>
      <trkpt lat="43.82998" lon="6.73904">
        <ele>1115</ele>
        <time>2019-07-01T09:04:07.372Z</time>
      </trkpt>
      <trkpt lat="43.83005" lon="6.73892">
        <ele>1116</ele>
        <time>2019-07-01T09:04:08.372Z</time>
      </trkpt>
      <trkpt lat="43.8301" lon="6.73874">
        <ele>1118</ele>
        <time>2019-07-01T09:04:09.372Z</time>
      </trkpt>
      <trkpt lat="43.8301" lon="6.73846">
        <ele>1124</ele>
        <time>2019-07-01T09:04:10.372Z</time>
      </trkpt>
      <trkpt lat="43.83007" lon="6.73796">
        <ele>1130</ele>
        <time>2019-07-01T09:04:11.372Z</time>
      </trkpt>
      <trkpt lat="43.83003" lon="6.73749">
        <ele>1135</ele>
        <time>2019-07-01T09:04:12.372Z</time>
      </trkpt>
      <trkpt lat="43.82995" lon="6.73704">
        <ele>1138</ele>
        <time>2019-07-01T09:04:13.372Z</time>
      </trkpt>
      <trkpt lat="43.82979" lon="6.73604">
        <ele>1144</ele>
        <time>2019-07-01T09:04:14.372Z</time>
      </trkpt>
      <trkpt lat="43.82961" lon="6.73523">
        <ele>1152</ele>
        <time>2019-07-01T09:04:15.372Z</time>
      </trkpt>
      <trkpt lat="43.82961" lon="6.73523">
        <ele>1152</ele>
        <time>2019-07-01T09:04:16.372Z</time>
      </trkpt>
      <trkpt lat="43.82947" lon="6.73454">
        <ele>1158</ele>
        <time>2019-07-01T09:04:17.372Z</time>
      </trkpt>
      <trkpt lat="43.82934" lon="6.73393">
        <ele>1163</ele>
        <time>2019-07-01T09:04:18.372Z</time>
      </trkpt>
      <trkpt lat="43.82934" lon="6.73384">
        <ele>1163</ele>
        <time>2019-07-01T09:04:19.372Z</time>
      </trkpt>
      <trkpt lat="43.82921" lon="6.73329">
        <ele>1168</ele>
        <time>2019-07-01T09:04:20.372Z</time>
      </trkpt>
      <trkpt lat="43.82905" lon="6.7324">
        <ele>1175</ele>
        <time>2019-07-01T09:04:21.372Z</time>
      </trkpt>
      <trkpt lat="43.82888" lon="6.73142">
        <ele>1180</ele>
        <time>2019-07-01T09:04:22.372Z</time>
      </trkpt>
      <trkpt lat="43.82873" lon="6.73076">
        <ele>1187</ele>
        <time>2019-07-01T09:04:23.372Z</time>
      </trkpt>
      <trkpt lat="43.82875" lon="6.73006">
        <ele>1193</ele>
        <time>2019-07-01T09:04:24.372Z</time>
      </trkpt>
      <trkpt lat="43.82872" lon="6.72968">
        <ele>1199</ele>
        <time>2019-07-01T09:04:25.372Z</time>
      </trkpt>
      <trkpt lat="43.82872" lon="6.72968">
        <ele>1199</ele>
        <time>2019-07-01T09:04:26.372Z</time>
      </trkpt>
      <trkpt lat="43.82866" lon="6.72945">
        <ele>1203</ele>
        <time>2019-07-01T09:04:27.372Z</time>
      </trkpt>
      <trkpt lat="43.82868" lon="6.72939">
        <ele>1204</ele>
        <time>2019-07-01T09:04:28.372Z</time>
      </trkpt>
      <trkpt lat="43.82872" lon="6.72936">
        <ele>1204</ele>
        <time>2019-07-01T09:04:29.372Z</time>
      </trkpt>
      <trkpt lat="43.82888" lon="6.7294">
        <ele>1202</ele>
        <time>2019-07-01T09:04:30.372Z</time>
      </trkpt>
      <trkpt lat="43.8292" lon="6.72944">
        <ele>1198</ele>
        <time>2019-07-01T09:04:31.372Z</time>
      </trkpt>
      <trkpt lat="43.82938" lon="6.72946">
        <ele>1201</ele>
        <time>2019-07-01T09:04:32.372Z</time>
      </trkpt>
      <trkpt lat="43.8297" lon="6.72958">
        <ele>1203</ele>
        <time>2019-07-01T09:04:33.372Z</time>
      </trkpt>
      <trkpt lat="43.83005" lon="6.72977">
        <ele>1204</ele>
        <time>2019-07-01T09:04:34.372Z</time>
      </trkpt>
      <trkpt lat="43.83029" lon="6.72996">
        <ele>1204</ele>
        <time>2019-07-01T09:04:35.372Z</time>
      </trkpt>
      <trkpt lat="43.83044" lon="6.73006">
        <ele>1204</ele>
        <time>2019-07-01T09:04:36.372Z</time>
      </trkpt>
      <trkpt lat="43.8306" lon="6.73008">
        <ele>1206</ele>
        <time>2019-07-01T09:04:37.372Z</time>
      </trkpt>
      <trkpt lat="43.83066" lon="6.73008">
        <ele>1207</ele>
        <time>2019-07-01T09:04:38.372Z</time>
      </trkpt>
      <trkpt lat="43.83066" lon="6.73008">
        <ele>1207</ele>
        <time>2019-07-01T09:04:39.372Z</time>
      </trkpt>
      <trkpt lat="43.83093" lon="6.73006">
        <ele>1212</ele>
        <time>2019-07-01T09:04:40.372Z</time>
      </trkpt>
      <trkpt lat="43.83121" lon="6.72999">
        <ele>1218</ele>
        <time>2019-07-01T09:04:41.372Z</time>
      </trkpt>
      <trkpt lat="43.8315" lon="6.72996">
        <ele>1223</ele>
        <time>2019-07-01T09:04:42.372Z</time>
      </trkpt>
      <trkpt lat="43.83189" lon="6.73002">
        <ele>1228</ele>
        <time>2019-07-01T09:04:43.372Z</time>
      </trkpt>
      <trkpt lat="43.8321" lon="6.73008">
        <ele>1230</ele>
        <time>2019-07-01T09:04:46.372Z</time>
      </trkpt>
      <trkpt lat="43.83222" lon="6.73012">
        <ele>1231</ele>
        <time>2019-07-01T09:04:47.372Z</time>
      </trkpt>
      <trkpt lat="43.83299" lon="6.7305">
        <ele>1241</ele>
        <time>2019-07-01T09:04:48.372Z</time>
      </trkpt>
      <trkpt lat="43.83342" lon="6.73071">
        <ele>1246</ele>
        <time>2019-07-01T09:04:49.372Z</time>
      </trkpt>
      <trkpt lat="43.83374" lon="6.73089">
        <ele>1247</ele>
        <time>2019-07-01T09:04:50.372Z</time>
      </trkpt>
      <trkpt lat="43.834" lon="6.73113">
        <ele>1248</ele>
        <time>2019-07-01T09:04:51.372Z</time>
      </trkpt>
      <trkpt lat="43.83411" lon="6.73124">
        <ele>1248</ele>
        <time>2019-07-01T09:04:52.372Z</time>
      </trkpt>
      <trkpt lat="43.83417" lon="6.73126">
        <ele>1249</ele>
        <time>2019-07-01T09:04:53.372Z</time>
      </trkpt>
      <trkpt lat="43.8342" lon="6.73121">
        <ele>1252</ele>
        <time>2019-07-01T09:04:54.372Z</time>
      </trkpt>
      <trkpt lat="43.83417" lon="6.73115">
        <ele>1253</ele>
        <time>2019-07-01T09:04:55.372Z</time>
      </trkpt>
      <trkpt lat="43.834" lon="6.73103">
        <ele>1251</ele>
        <time>2019-07-01T09:04:56.372Z</time>
      </trkpt>
      <trkpt lat="43.83379" lon="6.73076">
        <ele>1254</ele>
        <time>2019-07-01T09:04:57.372Z</time>
      </trkpt>
      <trkpt lat="43.8334" lon="6.73037">
        <ele>1262</ele>
        <time>2019-07-01T09:04:58.372Z</time>
      </trkpt>
      <trkpt lat="43.83313" lon="6.73005">
        <ele>1266</ele>
        <time>2019-07-01T09:04:59.372Z</time>
      </trkpt>
      <trkpt lat="43.83282" lon="6.72973">
        <ele>1266</ele>
        <time>2019-07-01T09:05:00.372Z</time>
      </trkpt>
      <trkpt lat="43.83256" lon="6.72945">
        <ele>1266</ele>
        <time>2019-07-01T09:05:01.372Z</time>
      </trkpt>
      <trkpt lat="43.83238" lon="6.7292">
        <ele>1271</ele>
        <time>2019-07-01T09:05:02.372Z</time>
      </trkpt>
      <trkpt lat="43.83207" lon="6.72892">
        <ele>1275</ele>
        <time>2019-07-01T09:05:03.372Z</time>
      </trkpt>
      <trkpt lat="43.83177" lon="6.72868">
        <ele>1277</ele>
        <time>2019-07-01T09:05:04.372Z</time>
      </trkpt>
      <trkpt lat="43.83142" lon="6.72838">
        <ele>1280</ele>
        <time>2019-07-01T09:05:05.372Z</time>
      </trkpt>
      <trkpt lat="43.83101" lon="6.72794">
        <ele>1286</ele>
        <time>2019-07-01T09:05:06.372Z</time>
      </trkpt>
      <trkpt lat="43.83072" lon="6.72765">
        <ele>1288</ele>
        <time>2019-07-01T09:05:07.372Z</time>
      </trkpt>
      <trkpt lat="43.83054" lon="6.72744">
        <ele>1290</ele>
        <time>2019-07-01T09:05:08.372Z</time>
      </trkpt>
      <trkpt lat="43.83042" lon="6.72723">
        <ele>1294</ele>
        <time>2019-07-01T09:05:09.372Z</time>
      </trkpt>
      <trkpt lat="43.83042" lon="6.72723">
        <ele>1294</ele>
        <time>2019-07-01T09:05:10.372Z</time>
      </trkpt>
      <trkpt lat="43.8301" lon="6.72676">
        <ele>1299</ele>
        <time>2019-07-01T09:05:11.372Z</time>
      </trkpt>
      <trkpt lat="43.82977" lon="6.72634">
        <ele>1303</ele>
        <time>2019-07-01T09:05:12.372Z</time>
      </trkpt>
      <trkpt lat="43.82954" lon="6.72608">
        <ele>1306</ele>
        <time>2019-07-01T09:05:13.372Z</time>
      </trkpt>
      <trkpt lat="43.82933" lon="6.72578">
        <ele>1310</ele>
      </trkpt>
      <trkpt lat="43.82913" lon="6.72544">
        <ele>1313</ele>
      </trkpt>
      <trkpt lat="43.8289" lon="6.725">
        <ele>1318</ele>
      </trkpt>
      <trkpt lat="43.8286" lon="6.72441">
        <ele>1324</ele>
      </trkpt>
      <trkpt lat="43.82829" lon="6.72384">
        <ele>1329</ele>
      </trkpt>
      <trkpt lat="43.82818" lon="6.7237">
        <ele>1330</ele>
      </trkpt>
      <trkpt lat="43.82796" lon="6.72355">
        <ele>1328</ele>
      </trkpt>
      <trkpt lat="43.82785" lon="6.72345">
        <ele>1327</ele>
      </trkpt>
      <trkpt lat="43.82777" lon="6.7233">
        <ele>1328</ele>
      </trkpt>
      <trkpt lat="43.82759" lon="6.72284">
        <ele>1333</ele>
      </trkpt>
      <trkpt lat="43.82751" lon="6.72232">
        <ele>1342</ele>
      </trkpt>
      <trkpt lat="43.82746" lon="6.72214">
        <ele>1345</ele>
      </trkpt>
      <trkpt lat="43.82732" lon="6.72184">
        <ele>1349</ele>
      </trkpt>
      <trkpt lat="43.82719" lon="6.72161">
        <ele>1351</ele>
      </trkpt>
      <trkpt lat="43.82708" lon="6.72146">
        <ele>1352</ele>
      </trkpt>
      <trkpt lat="43.82696" lon="6.72137">
        <ele>1352</ele>
      </trkpt>
      <trkpt lat="43.82681" lon="6.72114">
        <ele>1354</ele>
      </trkpt>
      <trkpt lat="43.82666" lon="6.72088">
        <ele>1356</ele>
      </trkpt>
      <trkpt lat="43.82659" lon="6.72077">
        <ele>1356</ele>
      </trkpt>
      <trkpt lat="43.82657" lon="6.72055">
        <ele>1360</ele>
      </trkpt>
      <trkpt lat="43.82642" lon="6.72026">
        <ele>1362</ele>
      </trkpt>
      <trkpt lat="43.8264" lon="6.72014">
        <ele>1364</ele>
      </trkpt>
      <trkpt lat="43.82633" lon="6.71997">
        <ele>1365</ele>
      </trkpt>
      <trkpt lat="43.82619" lon="6.7196">
        <ele>1369</ele>
      </trkpt>
      <trkpt lat="43.82612" lon="6.71936">
        <ele>1372</ele>
      </trkpt>
      <trkpt lat="43.82603" lon="6.71917">
        <ele>1374</ele>
      </trkpt>
      <trkpt lat="43.82595" lon="6.71903">
        <ele>1375</ele>
      </trkpt>
      <trkpt lat="43.82588" lon="6.71883">
        <ele>1378</ele>
      </trkpt>
      <trkpt lat="43.8258" lon="6.71873">
        <ele>1379</ele>
      </trkpt>
      <trkpt lat="43.82569" lon="6.7187">
        <ele>1377</ele>
      </trkpt>
      <trkpt lat="43.82552" lon="6.71849">
        <ele>1379</ele>
      </trkpt>
      <trkpt lat="43.82544" lon="6.71842">
        <ele>1379</ele>
      </trkpt>
      <trkpt lat="43.82539" lon="6.71832">
        <ele>1381</ele>
      </trkpt>
      <trkpt lat="43.82524" lon="6.71808">
        <ele>1383</ele>
      </trkpt>
      <trkpt lat="43.82509" lon="6.71796">
        <ele>1383</ele>
      </trkpt>
      <trkpt lat="43.82496" lon="6.71776">
        <ele>1384</ele>
      </trkpt>
      <trkpt lat="43.82485" lon="6.71752">
        <ele>1385</ele>
      </trkpt>
      <trkpt lat="43.82481" lon="6.71727">
        <ele>1387</ele>
      </trkpt>
      <trkpt lat="43.82479" lon="6.71673">
        <ele>1393</ele>
      </trkpt>
      <trkpt lat="43.82476" lon="6.71608">
        <ele>1401</ele>
      </trkpt>
      <trkpt lat="43.8246" lon="6.71544">
        <ele>1404</ele>
      </trkpt>
      <trkpt lat="43.8245" lon="6.71497">
        <ele>1406</ele>
      </trkpt>
      <trkpt lat="43.82442" lon="6.71454">
        <ele>1409</ele>
      </trkpt>
      <trkpt lat="43.82439" lon="6.71424">
        <ele>1412</ele>
      </trkpt>
      <trkpt lat="43.8244" lon="6.71391">
        <ele>1418</ele>
      </trkpt>
      <trkpt lat="43.82442" lon="6.7136">
        <ele>1424</ele>
      </trkpt>
      <trkpt lat="43.8244" lon="6.71343">
        <ele>1426</ele>
      </trkpt>
      <trkpt lat="43.8243" lon="6.71299">
        <ele>1428</ele>
      </trkpt>
      <trkpt lat="43.82431" lon="6.71293">
        <ele>1430</ele>
      </trkpt>
      <trkpt lat="43.82434" lon="6.71293">
        <ele>1432</ele>
      </trkpt>
      <trkpt lat="43.82452" lon="6.71328">
        <ele>1436</ele>
      </trkpt>
      <trkpt lat="43.82466" lon="6.71375">
        <ele>1434</ele>
      </trkpt>
      <trkpt lat="43.82473" lon="6.71385">
        <ele>1436</ele>
      </trkpt>
      <trkpt lat="43.82481" lon="6.71408">
        <ele>1435</ele>
      </trkpt>
      <trkpt lat="43.82495" lon="6.71431">
        <ele>1438</ele>
      </trkpt>
      <trkpt lat="43.82508" lon="6.71464">
        <ele>1439</ele>
      </trkpt>
      <trkpt lat="43.82524" lon="6.71497">
        <ele>1441</ele>
      </trkpt>
      <trkpt lat="43.82544" lon="6.71546">
        <ele>1441</ele>
      </trkpt>
      <trkpt lat="43.82554" lon="6.71562">
        <ele>1442</ele>
      </trkpt>
      <trkpt lat="43.82566" lon="6.71574">
        <ele>1445</ele>
      </trkpt>
      <trkpt lat="43.8258" lon="6.71587">
        <ele>1448</ele>
      </trkpt>
      <trkpt lat="43.82603" lon="6.71599">
        <ele>1454</ele>
      </trkpt>
      <trkpt lat="43.82624" lon="6.71612">
        <ele>1459</ele>
      </trkpt>
      <trkpt lat="43.82645" lon="6.7163">
        <ele>1462</ele>
      </trkpt>
      <trkpt lat="43.82679" lon="6.71667">
        <ele>1466</ele>
      </trkpt>
      <trkpt lat="43.82728" lon="6.71726">
        <ele>1470</ele>
      </trkpt>
      <trkpt lat="43.82756" lon="6.71759">
        <ele>1471</ele>
      </trkpt>
      <trkpt lat="43.82784" lon="6.71783">
        <ele>1474</ele>
      </trkpt>
      <trkpt lat="43.82808" lon="6.71797">
        <ele>1479</ele>
      </trkpt>
      <trkpt lat="43.82833" lon="6.71815">
        <ele>1484</ele>
      </trkpt>
      <trkpt lat="43.82889" lon="6.71866">
        <ele>1492</ele>
      </trkpt>
      <trkpt lat="43.82899" lon="6.7188">
        <ele>1492</ele>
      </trkpt>
      <trkpt lat="43.82911" lon="6.71902">
        <ele>1491</ele>
      </trkpt>
      <trkpt lat="43.82918" lon="6.71912">
        <ele>1491</ele>
      </trkpt>
      <trkpt lat="43.82918" lon="6.71912">
        <ele>1491</ele>
      </trkpt>
      <trkpt lat="43.8293" lon="6.71921">
        <ele>1492</ele>
      </trkpt>
      <trkpt lat="43.82944" lon="6.71927">
        <ele>1494</ele>
      </trkpt>
      <trkpt lat="43.82969" lon="6.7193">
        <ele>1501</ele>
      </trkpt>
      <trkpt lat="43.82987" lon="6.7193">
        <ele>1507</ele>
      </trkpt>
      <trkpt lat="43.83015" lon="6.71944">
        <ele>1512</ele>
      </trkpt>
      <trkpt lat="43.83045" lon="6.71967">
        <ele>1516</ele>
      </trkpt>
      <trkpt lat="43.83055" lon="6.71976">
        <ele>1517</ele>
      </trkpt>
      <trkpt lat="43.83069" lon="6.71995">
        <ele>1517</ele>
      </trkpt>
      <trkpt lat="43.83084" lon="6.72019">
        <ele>1518</ele>
      </trkpt>
      <trkpt lat="43.83091" lon="6.72042">
        <ele>1517</ele>
      </trkpt>
      <trkpt lat="43.83098" lon="6.7208">
        <ele>1514</ele>
      </trkpt>
      <trkpt lat="43.83102" lon="6.7211">
        <ele>1511</ele>
      </trkpt>
      <trkpt lat="43.83111" lon="6.72138">
        <ele>1511</ele>
      </trkpt>
      <trkpt lat="43.83126" lon="6.72163">
        <ele>1513</ele>
      </trkpt>
      <trkpt lat="43.83141" lon="6.72181">
        <ele>1515</ele>
      </trkpt>
      <trkpt lat="43.83155" lon="6.72187">
        <ele>1519</ele>
      </trkpt>
      <trkpt lat="43.83194" lon="6.72192">
        <ele>1523</ele>
      </trkpt>
      <trkpt lat="43.83205" lon="6.72186">
        <ele>1524</ele>
      </trkpt>
      <trkpt lat="43.83212" lon="6.72176">
        <ele>1525</ele>
      </trkpt>
      <trkpt lat="43.83214" lon="6.72185">
        <ele>1524</ele>
      </trkpt>
      <trkpt lat="43.83214" lon="6.722">
        <ele>1521</ele>
      </trkpt>
      <trkpt lat="43.83213" lon="6.72219">
        <ele>1518</ele>
      </trkpt>
      <trkpt lat="43.83212" lon="6.7223">
        <ele>1516</ele>
      </trkpt>
      <trkpt lat="43.83206" lon="6.72253">
        <ele>1512</ele>
      </trkpt>
      <trkpt lat="43.83201" lon="6.72269">
        <ele>1509</ele>
      </trkpt>
      <trkpt lat="43.83202" lon="6.7228">
        <ele>1507</ele>
      </trkpt>
      <trkpt lat="43.83206" lon="6.72294">
        <ele>1505</ele>
      </trkpt>
      <trkpt lat="43.83212" lon="6.72307">
        <ele>1503</ele>
      </trkpt>
      <trkpt lat="43.83216" lon="6.72314">
        <ele>1503</ele>
      </trkpt>
      <trkpt lat="43.83216" lon="6.72316">
        <ele>1503</ele>
      </trkpt>
      <trkpt lat="43.83216" lon="6.72316">
        <ele>1503</ele>
      </trkpt>
      <trkpt lat="43.83219" lon="6.72323">
        <ele>1502</ele>
      </trkpt>
      <trkpt lat="43.83237" lon="6.72327">
        <ele>1506</ele>
      </trkpt>
      <trkpt lat="43.83242" lon="6.72333">
        <ele>1506</ele>
      </trkpt>
      <trkpt lat="43.83246" lon="6.72348">
        <ele>1503</ele>
      </trkpt>
      <trkpt lat="43.83248" lon="6.72373">
        <ele>1495</ele>
      </trkpt>
      <trkpt lat="43.83255" lon="6.72376">
        <ele>1495</ele>
      </trkpt>
      <trkpt lat="43.83257" lon="6.7238">
        <ele>1493</ele>
      </trkpt>
      <trkpt lat="43.83259" lon="6.72391">
        <ele>1490</ele>
      </trkpt>
      <trkpt lat="43.83265" lon="6.72397">
        <ele>1488</ele>
      </trkpt>
      <trkpt lat="43.8327" lon="6.72405">
        <ele>1485</ele>
      </trkpt>
      <trkpt lat="43.8327" lon="6.72424">
        <ele>1480</ele>
      </trkpt>
      <trkpt lat="43.8327" lon="6.7243">
        <ele>1478</ele>
      </trkpt>
      <trkpt lat="43.83273" lon="6.72428">
        <ele>1479</ele>
      </trkpt>
      <trkpt lat="43.83275" lon="6.72428">
        <ele>1479</ele>
      </trkpt>
      <trkpt lat="43.83277" lon="6.7243">
        <ele>1478</ele>
      </trkpt>
      <trkpt lat="43.83284" lon="6.72437">
        <ele>1476</ele>
      </trkpt>
      <trkpt lat="43.83287" lon="6.72446">
        <ele>1474</ele>
      </trkpt>
      <trkpt lat="43.83294" lon="6.72463">
        <ele>1470</ele>
      </trkpt>
      <trkpt lat="43.83297" lon="6.72468">
        <ele>1469</ele>
      </trkpt>
      <trkpt lat="43.83302" lon="6.7247">
        <ele>1469</ele>
      </trkpt>
      <trkpt lat="43.83305" lon="6.72479">
        <ele>1467</ele>
      </trkpt>
      <trkpt lat="43.83308" lon="6.72484">
        <ele>1466</ele>
      </trkpt>
      <trkpt lat="43.83319" lon="6.72484">
        <ele>1468</ele>
      </trkpt>
      <trkpt lat="43.83333" lon="6.72487">
        <ele>1470</ele>
      </trkpt>
      <trkpt lat="43.83337" lon="6.72489">
        <ele>1469</ele>
      </trkpt>
      <trkpt lat="43.83337" lon="6.72496">
        <ele>1468</ele>
      </trkpt>
      <trkpt lat="43.83339" lon="6.72503">
        <ele>1467</ele>
      </trkpt>
      <trkpt lat="43.83343" lon="6.72509">
        <ele>1465</ele>
      </trkpt>
      <trkpt lat="43.83353" lon="6.72515">
        <ele>1462</ele>
      </trkpt>
      <trkpt lat="43.83359" lon="6.72515">
        <ele>1461</ele>
      </trkpt>
      <trkpt lat="43.83359" lon="6.72515">
        <ele>1461</ele>
      </trkpt>
      <trkpt lat="43.83398" lon="6.72519">
        <ele>1455</ele>
      </trkpt>
      <trkpt lat="43.83425" lon="6.72523">
        <ele>1449</ele>
      </trkpt>
      <trkpt lat="43.83444" lon="6.72524">
        <ele>1443</ele>
      </trkpt>
      <trkpt lat="43.83473" lon="6.72515">
        <ele>1434</ele>
      </trkpt>
      <trkpt lat="43.83473" lon="6.72514">
        <ele>1434</ele>
      </trkpt>
      <trkpt lat="43.83478" lon="6.72512">
        <ele>1432</ele>
      </trkpt>
      <trkpt lat="43.83489" lon="6.72499">
        <ele>1430</ele>
      </trkpt>
      <trkpt lat="43.83521" lon="6.72457">
        <ele>1416</ele>
      </trkpt>
      <trkpt lat="43.83536" lon="6.7245">
        <ele>1409</ele>
      </trkpt>
      <trkpt lat="43.8355" lon="6.72457">
        <ele>1403</ele>
      </trkpt>
      <trkpt lat="43.83561" lon="6.7247">
        <ele>1398</ele>
      </trkpt>
      <trkpt lat="43.83584" lon="6.72518">
        <ele>1386</ele>
      </trkpt>
      <trkpt lat="43.83618" lon="6.72592">
        <ele>1367</ele>
      </trkpt>
      <trkpt lat="43.83618" lon="6.72592">
        <ele>1367</ele>
      </trkpt>
      <trkpt lat="43.83625" lon="6.72609">
        <ele>1363</ele>
      </trkpt>
      <trkpt lat="43.8363" lon="6.72613">
        <ele>1360</ele>
      </trkpt>
      <trkpt lat="43.83655" lon="6.72637">
        <ele>1349</ele>
      </trkpt>
      <trkpt lat="43.83672" lon="6.72657">
        <ele>1341</ele>
      </trkpt>
      <trkpt lat="43.83715" lon="6.72714">
        <ele>1317</ele>
      </trkpt>
      <trkpt lat="43.83731" lon="6.72735">
        <ele>1309</ele>
      </trkpt>
      <trkpt lat="43.83738" lon="6.72758">
        <ele>1306</ele>
      </trkpt>
      <trkpt lat="43.83746" lon="6.72776">
        <ele>1302</ele>
      </trkpt>
      <trkpt lat="43.83763" lon="6.72803">
        <ele>1293</ele>
      </trkpt>
      <trkpt lat="43.83777" lon="6.72831">
        <ele>1285</ele>
      </trkpt>
      <trkpt lat="43.83782" lon="6.72851">
        <ele>1282</ele>
      </trkpt>
      <trkpt lat="43.83795" lon="6.72877">
        <ele>1274</ele>
      </trkpt>
      <trkpt lat="43.83801" lon="6.72886">
        <ele>1272</ele>
      </trkpt>
      <trkpt lat="43.83801" lon="6.72886">
        <ele>1272</ele>
      </trkpt>
      <trkpt lat="43.83822" lon="6.72919">
        <ele>1262</ele>
      </trkpt>
      <trkpt lat="43.8383" lon="6.72935">
        <ele>1258</ele>
      </trkpt>
      <trkpt lat="43.83858" lon="6.72982">
        <ele>1243</ele>
      </trkpt>
      <trkpt lat="43.83876" lon="6.73024">
        <ele>1236</ele>
      </trkpt>
      <trkpt lat="43.83888" lon="6.73049">
        <ele>1231</ele>
      </trkpt>
      <trkpt lat="43.83903" lon="6.73066">
        <ele>1226</ele>
      </trkpt>
      <trkpt lat="43.83928" lon="6.73121">
        <ele>1215</ele>
      </trkpt>
      <trkpt lat="43.83946" lon="6.73171">
        <ele>1206</ele>
      </trkpt>
      <trkpt lat="43.83951" lon="6.73199">
        <ele>1200</ele>
      </trkpt>
      <trkpt lat="43.83956" lon="6.73237">
        <ele>1194</ele>
      </trkpt>
      <trkpt lat="43.83957" lon="6.73256">
        <ele>1192</ele>
      </trkpt>
      <trkpt lat="43.83957" lon="6.73256">
        <ele>1192</ele>
      </trkpt>
      <trkpt lat="43.83958" lon="6.7327">
        <ele>1189</ele>
      </trkpt>
      <trkpt lat="43.8396" lon="6.73282">
        <ele>1187</ele>
      </trkpt>
      <trkpt lat="43.83965" lon="6.73294">
        <ele>1184</ele>
      </trkpt>
      <trkpt lat="43.83971" lon="6.73302">
        <ele>1182</ele>
      </trkpt>
      <trkpt lat="43.83986" lon="6.73311">
        <ele>1176</ele>
      </trkpt>
      <trkpt lat="43.84001" lon="6.73316">
        <ele>1172</ele>
      </trkpt>
      <trkpt lat="43.84019" lon="6.73315">
        <ele>1167</ele>
      </trkpt>
      <trkpt lat="43.84037" lon="6.7332">
        <ele>1162</ele>
      </trkpt>
      <trkpt lat="43.84052" lon="6.73328">
        <ele>1158</ele>
      </trkpt>
      <trkpt lat="43.84055" lon="6.73332">
        <ele>1158</ele>
      </trkpt>
      <trkpt lat="43.84056" lon="6.73343">
        <ele>1156</ele>
      </trkpt>
      <trkpt lat="43.84044" lon="6.73386">
        <ele>1155</ele>
      </trkpt>
      <trkpt lat="43.84045" lon="6.73406">
        <ele>1153</ele>
      </trkpt>
      <trkpt lat="43.84052" lon="6.73429">
        <ele>1150</ele>
      </trkpt>
      <trkpt lat="43.84058" lon="6.73457">
        <ele>1145</ele>
      </trkpt>
      <trkpt lat="43.84062" lon="6.73494">
        <ele>1141</ele>
      </trkpt>
      <trkpt lat="43.84062" lon="6.73521">
        <ele>1137</ele>
      </trkpt>
      <trkpt lat="43.84066" lon="6.73567">
        <ele>1130</ele>
      </trkpt>
      <trkpt lat="43.84066" lon="6.73567">
        <ele>1130</ele>
      </trkpt>
      <trkpt lat="43.84074" lon="6.73618">
        <ele>1121</ele>
      </trkpt>
      <trkpt lat="43.84084" lon="6.73645">
        <ele>1117</ele>
      </trkpt>
      <trkpt lat="43.84088" lon="6.73667">
        <ele>1113</ele>
      </trkpt>
      <trkpt lat="43.84094" lon="6.73689">
        <ele>1109</ele>
      </trkpt>
      <trkpt lat="43.84114" lon="6.73728">
        <ele>1100</ele>
      </trkpt>
      <trkpt lat="43.84136" lon="6.73764">
        <ele>1093</ele>
      </trkpt>
      <trkpt lat="43.84136" lon="6.73764">
        <ele>1093</ele>
      </trkpt>
      <trkpt lat="43.8418" lon="6.73823">
        <ele>1084.9</ele>
      </trkpt>
      <trkpt lat="43.84169" lon="6.73849">
        <ele>1082</ele>
      </trkpt>
      <trkpt lat="43.84155" lon="6.73871">
        <ele>1077</ele>
      </trkpt>
      <trkpt lat="43.84138" lon="6.73879">
        <ele>1076.2</ele>
      </trkpt>
      <trkpt lat="43.84108" lon="6.73886">
        <ele>1074.4</ele>
      </trkpt>
      <trkpt lat="43.84074" lon="6.73868">
        <ele>1071.9</ele>
      </trkpt>
      <trkpt lat="43.84049" lon="6.73854">
        <ele>1071.7</ele>
      </trkpt>
      <trkpt lat="43.84014" lon="6.73833">
        <ele>1077.6</ele>
      </trkpt>
      <trkpt lat="43.83979" lon="6.73828">
        <ele>1075.3</ele>
      </trkpt>
      <trkpt lat="43.83931" lon="6.73839">
        <ele>1065.3</ele>
      </trkpt>
      <trkpt lat="43.83846" lon="6.73872">
        <ele>1067.9</ele>
      </trkpt>
      <trkpt lat="43.83813" lon="6.73893">
        <ele>1080.2</ele>
      </trkpt>
      <trkpt lat="43.83805" lon="6.73919">
        <ele>1078.5</ele>
      </trkpt>
      <trkpt lat="43.83799" lon="6.73968">
        <ele>1081.1</ele>
      </trkpt>
      <trkpt lat="43.83805" lon="6.74033">
        <ele>1080.9</ele>
      </trkpt>
      <trkpt lat="43.83806" lon="6.74094">
        <ele>1077.3</ele>
      </trkpt>
      <trkpt lat="43.83804" lon="6.74151">
        <ele>1076.3</ele>
      </trkpt>
      <trkpt lat="43.83796" lon="6.74195">
        <ele>1070.4</ele>
      </trkpt>
      <trkpt lat="43.83788" lon="6.74221">
        <ele>1069.8</ele>
      </trkpt>
      <trkpt lat="43.83749" lon="6.74249">
        <ele>1079.1</ele>
      </trkpt>
      <trkpt lat="43.83729" lon="6.74258">
        <ele>1076.1</ele>
      </trkpt>
      <trkpt lat="43.83706" lon="6.74299">
        <ele>1073.4</ele>
      </trkpt>
      <trkpt lat="43.83683" lon="6.74308">
        <ele>1074.4</ele>
      </trkpt>
      <trkpt lat="43.83624" lon="6.74293">
        <ele>1078.9</ele>
      </trkpt>
      <trkpt lat="43.83595" lon="6.74267">
        <ele>1080.3</ele>
      </trkpt>
      <trkpt lat="43.83572" lon="6.74241">
        <ele>1081.7</ele>
      </trkpt>
      <trkpt lat="43.83565" lon="6.74206">
        <ele>1083.5</ele>
      </trkpt>
      <trkpt lat="43.83545" lon="6.74153">
        <ele>1093.2</ele>
      </trkpt>
      <trkpt lat="43.83523" lon="6.7413">
        <ele>1092.3</ele>
      </trkpt>
      <trkpt lat="43.83455" lon="6.74113">
        <ele>1082.4</ele>
      </trkpt>
      <trkpt lat="43.83397" lon="6.74098">
        <ele>1078.5</ele>
      </trkpt>
      <trkpt lat="43.83376" lon="6.74095">
        <ele>1077.3</ele>
      </trkpt>
      <trkpt lat="43.83333" lon="6.74106">
        <ele>1072.1</ele>
      </trkpt>
      <trkpt lat="43.83319" lon="6.74116">
        <ele>1070.4</ele>
      </trkpt>
      <trkpt lat="43.83283" lon="6.74097">
        <ele>1068.5</ele>
      </trkpt>
      <trkpt lat="43.83188" lon="6.74004">
        <ele>1066.3</ele>
      </trkpt>
      <trkpt lat="43.83157" lon="6.7398">
        <ele>1070.7</ele>
      </trkpt>
      <trkpt lat="43.83141" lon="6.73975">
        <ele>1072.3</ele>
      </trkpt>
      <trkpt lat="43.83074" lon="6.73998">
        <ele>1072.6</ele>
      </trkpt>
      <trkpt lat="43.83035" lon="6.74012">
        <ele>1074.2</ele>
      </trkpt>
      <trkpt lat="43.83006" lon="6.7401">
        <ele>1077.5</ele>
      </trkpt>
      <trkpt lat="43.8296" lon="6.74021">
        <ele>1079.5</ele>
      </trkpt>
      <trkpt lat="43.8293" lon="6.74037">
        <ele>1078.8</ele>
      </trkpt>
      <trkpt lat="43.82889" lon="6.74075">
        <ele>1076.8</ele>
      </trkpt>
      <trkpt lat="43.82862" lon="6.74096">
        <ele>1071.9</ele>
      </trkpt>
      <trkpt lat="43.82838" lon="6.74098">
        <ele>1071.9</ele>
      </trkpt>
      <trkpt lat="43.82811" lon="6.74101">
        <ele>1071.2</ele>
      </trkpt>
      <trkpt lat="43.82791" lon="6.74106">
        <ele>1071.4</ele>
      </trkpt>
      <trkpt lat="43.82766" lon="6.74112">
        <ele>1072</ele>
      </trkpt>
      <trkpt lat="43.82743" lon="6.74116">
        <ele>1072.9</ele>
      </trkpt>
      <trkpt lat="43.8271" lon="6.74112">
        <ele>1072.9</ele>
      </trkpt>
      <trkpt lat="43.82669" lon="6.7412">
        <ele>1072.7</ele>
      </trkpt>
      <trkpt lat="43.82667" lon="6.74107">
        <ele>1073.9</ele>
      </trkpt>
      <trkpt lat="43.8267" lon="6.74096">
        <ele>1075.1</ele>
      </trkpt>
      <trkpt lat="43.82696" lon="6.74082">
        <ele>1084.1</ele>
      </trkpt>
      <trkpt lat="43.82745" lon="6.74083">
        <ele>1080.9</ele>
      </trkpt>
      <trkpt lat="43.82781" lon="6.7405">
        <ele>1088.8</ele>
      </trkpt>
      <trkpt lat="43.82817" lon="6.74033">
        <ele>1091.2</ele>
      </trkpt>
      <trkpt lat="43.82822" lon="6.74015">
        <ele>1095.5</ele>
      </trkpt>
      <trkpt lat="43.82845" lon="6.74008">
        <ele>1093.6</ele>
      </trkpt>
      <trkpt lat="43.82857" lon="6.73987">
        <ele>1108.7</ele>
      </trkpt>
      <trkpt lat="43.82892" lon="6.73966">
        <ele>1110.5</ele>
      </trkpt>
      <trkpt lat="43.82914" lon="6.73962">
        <ele>1110.4</ele>
      </trkpt>
      <trkpt lat="43.82927" lon="6.73943">
        <ele>1109.8</ele>
      </trkpt>
      <trkpt lat="43.82991" lon="6.73912">
        <ele>1118.7</ele>
      </trkpt>
      <trkpt lat="43.83009" lon="6.73891">
        <ele>1111.1</ele>
      </trkpt>
      <trkpt lat="43.83012" lon="6.73855">
        <ele>1116.6</ele>
      </trkpt>
      <trkpt lat="43.83007" lon="6.73773">
        <ele>1126</ele>
      </trkpt>
      <trkpt lat="43.83004" lon="6.73748">
        <ele>1133.5</ele>
      </trkpt>
      <trkpt lat="43.82987" lon="6.73642">
        <ele>1146.9</ele>
      </trkpt>
      <trkpt lat="43.8298" lon="6.73599">
        <ele>1146.7</ele>
      </trkpt>
      <trkpt lat="43.82957" lon="6.7352">
        <ele>1153.8</ele>
      </trkpt>
      <trkpt lat="43.82931" lon="6.73385">
        <ele>1159</ele>
      </trkpt>
      <trkpt lat="43.82915" lon="6.73286">
        <ele>1179.5</ele>
      </trkpt>
      <trkpt lat="43.82884" lon="6.73137">
        <ele>1182.9</ele>
      </trkpt>
      <trkpt lat="43.82872" lon="6.73086">
        <ele>1185.9</ele>
      </trkpt>
      <trkpt lat="43.82874" lon="6.7301">
        <ele>1191.2</ele>
      </trkpt>
      <trkpt lat="43.82875" lon="6.72971">
        <ele>1199.3</ele>
      </trkpt>
      <trkpt lat="43.82863" lon="6.72941">
        <ele>1202.4</ele>
      </trkpt>
      <trkpt lat="43.82869" lon="6.72934">
        <ele>1202.5</ele>
      </trkpt>
      <trkpt lat="43.82915" lon="6.7294">
        <ele>1200.8</ele>
      </trkpt>
      <trkpt lat="43.82945" lon="6.72944">
        <ele>1201.9</ele>
      </trkpt>
      <trkpt lat="43.83005" lon="6.72974">
        <ele>1209.8</ele>
      </trkpt>
      <trkpt lat="43.83027" lon="6.72989">
        <ele>1210.4</ele>
      </trkpt>
      <trkpt lat="43.83045" lon="6.73003">
        <ele>1198.9</ele>
      </trkpt>
      <trkpt lat="43.83095" lon="6.73003">
        <ele>1210.7</ele>
      </trkpt>
      <trkpt lat="43.83122" lon="6.72996">
        <ele>1226.6</ele>
      </trkpt>
      <trkpt lat="43.83144" lon="6.72993">
        <ele>1228</ele>
      </trkpt>
      <trkpt lat="43.83194" lon="6.73">
        <ele>1238.9</ele>
      </trkpt>
      <trkpt lat="43.83216" lon="6.73005">
        <ele>1225.3</ele>
      </trkpt>
      <trkpt lat="43.83296" lon="6.73046">
        <ele>1242</ele>
      </trkpt>
      <trkpt lat="43.83368" lon="6.73083">
        <ele>1240.1</ele>
      </trkpt>
      <trkpt lat="43.83379" lon="6.73091">
        <ele>1241.9</ele>
      </trkpt>
      <trkpt lat="43.8341" lon="6.7312">
        <ele>1242.3</ele>
      </trkpt>
      <trkpt lat="43.83419" lon="6.73127">
        <ele>1257.6</ele>
      </trkpt>
      <trkpt lat="43.8342" lon="6.73118">
        <ele>1259.5</ele>
      </trkpt>
      <trkpt lat="43.83399" lon="6.73098">
        <ele>1246.6</ele>
      </trkpt>
      <trkpt lat="43.83382" lon="6.73074">
        <ele>1263.5</ele>
      </trkpt>
      <trkpt lat="43.83346" lon="6.7305">
        <ele>1262.3</ele>
      </trkpt>
      <trkpt lat="43.83261" lon="6.72952">
        <ele>1271.6</ele>
      </trkpt>
      <trkpt lat="43.83242" lon="6.72921">
        <ele>1266.8</ele>
      </trkpt>
      <trkpt lat="43.83175" lon="6.72863">
        <ele>1281.9</ele>
      </trkpt>
      <trkpt lat="43.83145" lon="6.72845">
        <ele>1271.6</ele>
      </trkpt>
      <trkpt lat="43.83103" lon="6.72802">
        <ele>1288.2</ele>
      </trkpt>
      <trkpt lat="43.83056" lon="6.72753">
        <ele>1278.2</ele>
      </trkpt>
      <trkpt lat="43.83035" lon="6.72705">
        <ele>1298.7</ele>
      </trkpt>
      <trkpt lat="43.83018" lon="6.72683">
        <ele>1299.1</ele>
      </trkpt>
      <trkpt lat="43.82948" lon="6.72603">
        <ele>1303</ele>
      </trkpt>
      <trkpt lat="43.82913" lon="6.72553">
        <ele>1304.5</ele>
      </trkpt>
      <trkpt lat="43.82839" lon="6.72407">
        <ele>1330.4</ele>
      </trkpt>
      <trkpt lat="43.82825" lon="6.72372">
        <ele>1326.1</ele>
      </trkpt>
      <trkpt lat="43.82797" lon="6.72352">
        <ele>1325.6</ele>
      </trkpt>
      <trkpt lat="43.82787" lon="6.72343">
        <ele>1324.4</ele>
      </trkpt>
      <trkpt lat="43.8276" lon="6.72283">
        <ele>1338.2</ele>
      </trkpt>
      <trkpt lat="43.82754" lon="6.72234">
        <ele>1348.1</ele>
      </trkpt>
      <trkpt lat="43.82747" lon="6.72213">
        <ele>1340.2</ele>
      </trkpt>
      <trkpt lat="43.8273" lon="6.72175">
        <ele>1345.7</ele>
      </trkpt>
      <trkpt lat="43.82715" lon="6.72151">
        <ele>1356</ele>
      </trkpt>
      <trkpt lat="43.82703" lon="6.7214">
        <ele>1355.5</ele>
      </trkpt>
      <trkpt lat="43.82688" lon="6.72129">
        <ele>1354.9</ele>
      </trkpt>
      <trkpt lat="43.82669" lon="6.72089">
        <ele>1357.3</ele>
      </trkpt>
      <trkpt lat="43.82657" lon="6.72079">
        <ele>1355.4</ele>
      </trkpt>
      <trkpt lat="43.82656" lon="6.72055">
        <ele>1355.6</ele>
      </trkpt>
      <trkpt lat="43.8264" lon="6.72025">
        <ele>1357.5</ele>
      </trkpt>
      <trkpt lat="43.82639" lon="6.72007">
        <ele>1359.7</ele>
      </trkpt>
      <trkpt lat="43.82617" lon="6.71962">
        <ele>1369.5</ele>
      </trkpt>
      <trkpt lat="43.82609" lon="6.71934">
        <ele>1371.1</ele>
      </trkpt>
      <trkpt lat="43.82594" lon="6.71908">
        <ele>1377.7</ele>
      </trkpt>
      <trkpt lat="43.82586" lon="6.71887">
        <ele>1383.9</ele>
      </trkpt>
      <trkpt lat="43.82577" lon="6.71876">
        <ele>1372.9</ele>
      </trkpt>
      <trkpt lat="43.82569" lon="6.71873">
        <ele>1373</ele>
      </trkpt>
      <trkpt lat="43.82551" lon="6.71845">
        <ele>1375.1</ele>
      </trkpt>
      <trkpt lat="43.82545" lon="6.7184">
        <ele>1374.3</ele>
      </trkpt>
      <trkpt lat="43.82527" lon="6.7181">
        <ele>1386.9</ele>
      </trkpt>
      <trkpt lat="43.82512" lon="6.71796">
        <ele>1387.5</ele>
      </trkpt>
      <trkpt lat="43.82486" lon="6.71751">
        <ele>1380.9</ele>
      </trkpt>
      <trkpt lat="43.82483" lon="6.71726">
        <ele>1383.6</ele>
      </trkpt>
      <trkpt lat="43.8248" lon="6.71657">
        <ele>1394.7</ele>
      </trkpt>
      <trkpt lat="43.82477" lon="6.7161">
        <ele>1396.3</ele>
      </trkpt>
      <trkpt lat="43.82465" lon="6.71558">
        <ele>1403.8</ele>
      </trkpt>
      <trkpt lat="43.82448" lon="6.71481">
        <ele>1411.4</ele>
      </trkpt>
      <trkpt lat="43.82443" lon="6.71448">
        <ele>1412.9</ele>
      </trkpt>
      <trkpt lat="43.82441" lon="6.71415">
        <ele>1419.6</ele>
      </trkpt>
      <trkpt lat="43.82444" lon="6.71362">
        <ele>1427.3</ele>
      </trkpt>
      <trkpt lat="43.82441" lon="6.71341">
        <ele>1426</ele>
      </trkpt>
      <trkpt lat="43.82432" lon="6.713">
        <ele>1438.7</ele>
      </trkpt>
      <trkpt lat="43.82434" lon="6.71289">
        <ele>1440.8</ele>
      </trkpt>
      <trkpt lat="43.82455" lon="6.7133">
        <ele>1442.8</ele>
      </trkpt>
      <trkpt lat="43.82468" lon="6.71384">
        <ele>1431.8</ele>
      </trkpt>
      <trkpt lat="43.82486" lon="6.71412">
        <ele>1436.4</ele>
      </trkpt>
      <trkpt lat="43.82499" lon="6.71448">
        <ele>1425.2</ele>
      </trkpt>
      <trkpt lat="43.82531" lon="6.71507">
        <ele>1440.4</ele>
      </trkpt>
      <trkpt lat="43.82542" lon="6.71546">
        <ele>1440.7</ele>
      </trkpt>
      <trkpt lat="43.82569" lon="6.71574">
        <ele>1445.3</ele>
      </trkpt>
      <trkpt lat="43.8259" lon="6.7159">
        <ele>1451.8</ele>
      </trkpt>
      <trkpt lat="43.82624" lon="6.71609">
        <ele>1457.3</ele>
      </trkpt>
      <trkpt lat="43.82638" lon="6.71621">
        <ele>1458.7</ele>
      </trkpt>
      <trkpt lat="43.8266" lon="6.71643">
        <ele>1459.1</ele>
      </trkpt>
      <trkpt lat="43.82687" lon="6.71672">
        <ele>1465.2</ele>
      </trkpt>
      <trkpt lat="43.82758" lon="6.71759">
        <ele>1472.8</ele>
      </trkpt>
      <trkpt lat="43.82789" lon="6.71788">
        <ele>1474.6</ele>
      </trkpt>
      <trkpt lat="43.82823" lon="6.71806">
        <ele>1477.7</ele>
      </trkpt>
      <trkpt lat="43.82892" lon="6.71868">
        <ele>1488.7</ele>
      </trkpt>
      <trkpt lat="43.82919" lon="6.71911">
        <ele>1494.8</ele>
      </trkpt>
      <trkpt lat="43.8294" lon="6.71923">
        <ele>1489.5</ele>
      </trkpt>
      <trkpt lat="43.82963" lon="6.71927">
        <ele>1493.6</ele>
      </trkpt>
      <trkpt lat="43.82987" lon="6.71926">
        <ele>1502.4</ele>
      </trkpt>
      <trkpt lat="43.83017" lon="6.71942">
        <ele>1516</ele>
      </trkpt>
      <trkpt lat="43.83052" lon="6.71969">
        <ele>1517.8</ele>
      </trkpt>
      <trkpt lat="43.83073" lon="6.71996">
        <ele>1519.4</ele>
      </trkpt>
      <trkpt lat="43.83086" lon="6.72021">
        <ele>1524.7</ele>
      </trkpt>
      <trkpt lat="43.83096" lon="6.72055">
        <ele>1522.9</ele>
      </trkpt>
      <trkpt lat="43.83102" lon="6.72096">
        <ele>1514.2</ele>
      </trkpt>
      <trkpt lat="43.83106" lon="6.72115">
        <ele>1515</ele>
      </trkpt>
      <trkpt lat="43.83116" lon="6.72142">
        <ele>1514.8</ele>
      </trkpt>
      <trkpt lat="43.83141" lon="6.72178">
        <ele>1509.9</ele>
      </trkpt>
      <trkpt lat="43.83165" lon="6.72186">
        <ele>1514.4</ele>
      </trkpt>
      <trkpt lat="43.83193" lon="6.7219">
        <ele>1521.8</ele>
      </trkpt>
      <trkpt lat="43.83202" lon="6.72184">
        <ele>1522</ele>
      </trkpt>
      <trkpt lat="43.83211" lon="6.72173">
        <ele>1522.4</ele>
      </trkpt>
      <trkpt lat="43.83206" lon="6.72139">
        <ele>1531</ele>
      </trkpt>
      <trkpt lat="43.8321" lon="6.72105">
        <ele>1532.8</ele>
      </trkpt>
      <trkpt lat="43.8321" lon="6.72091">
        <ele>1533.3</ele>
      </trkpt>
      <trkpt lat="43.83198" lon="6.72044">
        <ele>1542.4</ele>
      </trkpt>
      <trkpt lat="43.83187" lon="6.72028">
        <ele>1544.1</ele>
      </trkpt>
      <trkpt lat="43.83177" lon="6.71994">
        <ele>1551.2</ele>
      </trkpt>
      <trkpt lat="43.83171" lon="6.7198">
        <ele>1551.8</ele>
      </trkpt>
      <trkpt lat="43.8317" lon="6.71958">
        <ele>1553.4</ele>
      </trkpt>
      <trkpt lat="43.83158" lon="6.7193">
        <ele>1554.9</ele>
      </trkpt>
      <trkpt lat="43.83142" lon="6.71846">
        <ele>1565.2</ele>
      </trkpt>
      <trkpt lat="43.83137" lon="6.7182">
        <ele>1571.1</ele>
      </trkpt>
      <trkpt lat="43.83144" lon="6.71792">
        <ele>1571.6</ele>
      </trkpt>
      <trkpt lat="43.83117" lon="6.71717">
        <ele>1573.8</ele>
      </trkpt>
      <trkpt lat="43.83062" lon="6.71594">
        <ele>1581.9</ele>
      </trkpt>
      <trkpt lat="43.83036" lon="6.71467">
        <ele>1586.7</ele>
      </trkpt>
      <trkpt lat="43.83002" lon="6.71439">
        <ele>1587.3</ele>
      </trkpt>
      <trkpt lat="43.82943" lon="6.71428">
        <ele>1593.9</ele>
      </trkpt>
      <trkpt lat="43.82896" lon="6.71411">
        <ele>1594.1</ele>
      </trkpt>
      <trkpt lat="43.82845" lon="6.71312">
        <ele>1588.4</ele>
      </trkpt>
      <trkpt lat="43.82827" lon="6.71261">
        <ele>1590.1</ele>
      </trkpt>
      <trkpt lat="43.82766" lon="6.71209">
        <ele>1594.2</ele>
      </trkpt>
      <trkpt lat="43.82723" lon="6.71166">
        <ele>1593.4</ele>
      </trkpt>
      <trkpt lat="43.82683" lon="6.71082">
        <ele>1588.2</ele>
      </trkpt>
      <trkpt lat="43.82661" lon="6.71004">
        <ele>1582.2</ele>
      </trkpt>
      <trkpt lat="43.82633" lon="6.70852">
        <ele>1567.1</ele>
      </trkpt>
      <trkpt lat="43.82617" lon="6.70686">
        <ele>1559.9</ele>
      </trkpt>
      <trkpt lat="43.82578" lon="6.70658">
        <ele>1555.7</ele>
      </trkpt>
      <trkpt lat="43.82568" lon="6.70626">
        <ele>1551</ele>
      </trkpt>
      <trkpt lat="43.82548" lon="6.70598">
        <ele>1549</ele>
      </trkpt>
      <trkpt lat="43.82549" lon="6.70497">
        <ele>1536.4</ele>
      </trkpt>
      <trkpt lat="43.82562" lon="6.70432">
        <ele>1535.8</ele>
      </trkpt>
      <trkpt lat="43.82504" lon="6.70432">
        <ele>1534.5</ele>
      </trkpt>
      <trkpt lat="43.82438" lon="6.7046">
        <ele>1524.9</ele>
      </trkpt>
      <trkpt lat="43.82405" lon="6.70525">
        <ele>1514.3</ele>
      </trkpt>
      <trkpt lat="43.82381" lon="6.70568">
        <ele>1513.6</ele>
      </trkpt>
      <trkpt lat="43.8237" lon="6.70711">
        <ele>1515.7</ele>
      </trkpt>
      <trkpt lat="43.82353" lon="6.70728">
        <ele>1512.9</ele>
      </trkpt>
      <trkpt lat="43.82351" lon="6.70759">
        <ele>1505</ele>
      </trkpt>
      <trkpt lat="43.82367" lon="6.70789">
        <ele>1503.7</ele>
      </trkpt>
      <trkpt lat="43.82369" lon="6.70824">
        <ele>1499.9</ele>
      </trkpt>
      <trkpt lat="43.82397" lon="6.70862">
        <ele>1488.6</ele>
      </trkpt>
      <trkpt lat="43.824" lon="6.70887">
        <ele>1484.8</ele>
      </trkpt>
      <trkpt lat="43.82398" lon="6.70916">
        <ele>1483.5</ele>
      </trkpt>
      <trkpt lat="43.82378" lon="6.70904">
        <ele>1478.9</ele>
      </trkpt>
      <trkpt lat="43.82376" lon="6.70929">
        <ele>1463.5</ele>
      </trkpt>
      <trkpt lat="43.82381" lon="6.7095">
        <ele>1462.7</ele>
      </trkpt>
      <trkpt lat="43.82389" lon="6.70977">
        <ele>1462</ele>
      </trkpt>
      <trkpt lat="43.82396" lon="6.71008">
        <ele>1455.7</ele>
      </trkpt>
      <trkpt lat="43.82393" lon="6.71039">
        <ele>1450.4</ele>
      </trkpt>
      <trkpt lat="43.82372" lon="6.70964">
        <ele>1459.4</ele>
      </trkpt>
      <trkpt lat="43.82371" lon="6.71003">
        <ele>1447.2</ele>
      </trkpt>
      <trkpt lat="43.82338" lon="6.70958">
        <ele>1453.9</ele>
      </trkpt>
      <trkpt lat="43.82332" lon="6.70961">
        <ele>1434.4</ele>
      </trkpt>
      <trkpt lat="43.82357" lon="6.71007">
        <ele>1442.8</ele>
      </trkpt>
      <trkpt lat="43.82338" lon="6.71001">
        <ele>1436.2</ele>
      </trkpt>
      <trkpt lat="43.82351" lon="6.71063">
        <ele>1437.9</ele>
      </trkpt>
      <trkpt lat="43.8235" lon="6.71126">
        <ele>1429.5</ele>
      </trkpt>
      <trkpt lat="43.82365" lon="6.71175">
        <ele>1419.9</ele>
      </trkpt>
      <trkpt lat="43.82381" lon="6.71242">
        <ele>1418.7</ele>
      </trkpt>
      <trkpt lat="43.82378" lon="6.71304">
        <ele>1402.6</ele>
      </trkpt>
      <trkpt lat="43.82393" lon="6.71407">
        <ele>1392.2</ele>
      </trkpt>
      <trkpt lat="43.82417" lon="6.71535">
        <ele>1396.3</ele>
      </trkpt>
      <trkpt lat="43.82431" lon="6.71619">
        <ele>1385.1</ele>
      </trkpt>
      <trkpt lat="43.82431" lon="6.71676">
        <ele>1372.3</ele>
      </trkpt>
      <trkpt lat="43.82432" lon="6.71718">
        <ele>1373.8</ele>
      </trkpt>
      <trkpt lat="43.82422" lon="6.71751">
        <ele>1360.9</ele>
      </trkpt>
      <trkpt lat="43.8242" lon="6.71788">
        <ele>1363.3</ele>
      </trkpt>
      <trkpt lat="43.82416" lon="6.71821">
        <ele>1343.3</ele>
      </trkpt>
      <trkpt lat="43.82434" lon="6.71876">
        <ele>1347.2</ele>
      </trkpt>
      <trkpt lat="43.825" lon="6.71941">
        <ele>1346.3</ele>
      </trkpt>
      <trkpt lat="43.82531" lon="6.71993">
        <ele>1339.8</ele>
      </trkpt>
      <trkpt lat="43.82533" lon="6.72018">
        <ele>1325.4</ele>
      </trkpt>
      <trkpt lat="43.82544" lon="6.72026">
        <ele>1326.6</ele>
      </trkpt>
      <trkpt lat="43.82568" lon="6.72133">
        <ele>1310.2</ele>
      </trkpt>
      <trkpt lat="43.82578" lon="6.72216">
        <ele>1296.3</ele>
      </trkpt>
      <trkpt lat="43.82584" lon="6.72294">
        <ele>1300.7</ele>
      </trkpt>
      <trkpt lat="43.82581" lon="6.7235">
        <ele>1282</ele>
      </trkpt>
      <trkpt lat="43.82569" lon="6.72376">
        <ele>1275.7</ele>
      </trkpt>
      <trkpt lat="43.82573" lon="6.72435">
        <ele>1271.6</ele>
      </trkpt>
      <trkpt lat="43.82571" lon="6.72479">
        <ele>1267.2</ele>
      </trkpt>
      <trkpt lat="43.82567" lon="6.72543">
        <ele>1256</ele>
      </trkpt>
      <trkpt lat="43.82573" lon="6.72597">
        <ele>1251.1</ele>
      </trkpt>
      <trkpt lat="43.826" lon="6.72704">
        <ele>1245.9</ele>
      </trkpt>
      <trkpt lat="43.82634" lon="6.72834">
        <ele>1229.4</ele>
      </trkpt>
      <trkpt lat="43.8264" lon="6.72876">
        <ele>1227.7</ele>
      </trkpt>
      <trkpt lat="43.82652" lon="6.72896">
        <ele>1228.3</ele>
      </trkpt>
      <trkpt lat="43.82655" lon="6.72925">
        <ele>1226.7</ele>
      </trkpt>
      <trkpt lat="43.82656" lon="6.72941">
        <ele>1224.5</ele>
      </trkpt>
      <trkpt lat="43.82646" lon="6.72949">
        <ele>1222.6</ele>
      </trkpt>
      <trkpt lat="43.82639" lon="6.7295">
        <ele>1221.6</ele>
      </trkpt>
      <trkpt lat="43.82614" lon="6.7292">
        <ele>1217.9</ele>
      </trkpt>
      <trkpt lat="43.82609" lon="6.72909">
        <ele>1221</ele>
      </trkpt>
      <trkpt lat="43.82596" lon="6.72905">
        <ele>1218.3</ele>
      </trkpt>
      <trkpt lat="43.82584" lon="6.72897">
        <ele>1218.7</ele>
      </trkpt>
      <trkpt lat="43.82565" lon="6.72884">
        <ele>1203.4</ele>
      </trkpt>
      <trkpt lat="43.82557" lon="6.72883">
        <ele>1202</ele>
      </trkpt>
      <trkpt lat="43.8255" lon="6.72869">
        <ele>1201.7</ele>
      </trkpt>
      <trkpt lat="43.82544" lon="6.72856">
        <ele>1201.4</ele>
      </trkpt>
      <trkpt lat="43.82532" lon="6.72847">
        <ele>1198.7</ele>
      </trkpt>
      <trkpt lat="43.82517" lon="6.7284">
        <ele>1194</ele>
      </trkpt>
      <trkpt lat="43.82501" lon="6.72824">
        <ele>1194.7</ele>
      </trkpt>
      <trkpt lat="43.8249" lon="6.72819">
        <ele>1182.7</ele>
      </trkpt>
      <trkpt lat="43.8248" lon="6.7281">
        <ele>1180.8</ele>
      </trkpt>
      <trkpt lat="43.82471" lon="6.72789">
        <ele>1180.6</ele>
      </trkpt>
      <trkpt lat="43.82463" lon="6.72762">
        <ele>1181.2</ele>
      </trkpt>
      <trkpt lat="43.82458" lon="6.72754">
        <ele>1180.1</ele>
      </trkpt>
      <trkpt lat="43.82451" lon="6.72756">
        <ele>1178</ele>
      </trkpt>
      <trkpt lat="43.82448" lon="6.72763">
        <ele>1177.3</ele>
      </trkpt>
      <trkpt lat="43.82437" lon="6.72773">
        <ele>1175</ele>
      </trkpt>
      <trkpt lat="43.8243" lon="6.72789">
        <ele>1173.6</ele>
      </trkpt>
      <trkpt lat="43.82413" lon="6.72807">
        <ele>1157.2</ele>
      </trkpt>
      <trkpt lat="43.82404" lon="6.72835">
        <ele>1153.8</ele>
      </trkpt>
      <trkpt lat="43.82393" lon="6.72854">
        <ele>1151.2</ele>
      </trkpt>
      <trkpt lat="43.8238" lon="6.72868">
        <ele>1149.6</ele>
      </trkpt>
      <trkpt lat="43.82373" lon="6.72913">
        <ele>1147.6</ele>
      </trkpt>
      <trkpt lat="43.82361" lon="6.72942">
        <ele>1141.3</ele>
      </trkpt>
      <trkpt lat="43.82357" lon="6.72974">
        <ele>1139</ele>
      </trkpt>
      <trkpt lat="43.82351" lon="6.72986">
        <ele>1137.2</ele>
      </trkpt>
      <trkpt lat="43.82348" lon="6.72995">
        <ele>1135.7</ele>
      </trkpt>
      <trkpt lat="43.82324" lon="6.7301">
        <ele>1128</ele>
      </trkpt>
      <trkpt lat="43.82283" lon="6.73022">
        <ele>1123.4</ele>
      </trkpt>
      <trkpt lat="43.82244" lon="6.73019">
        <ele>1116.1</ele>
      </trkpt>
      <trkpt lat="43.82268" lon="6.73102">
        <ele>1118.1</ele>
      </trkpt>
      <trkpt lat="43.82263" lon="6.73155">
        <ele>1116.3</ele>
      </trkpt>
      <trkpt lat="43.82241" lon="6.73284">
        <ele>1109.7</ele>
      </trkpt>
      <trkpt lat="43.82219" lon="6.73483">
        <ele>1104.7</ele>
      </trkpt>
      <trkpt lat="43.82222" lon="6.73521">
        <ele>1102.6</ele>
      </trkpt>
      <trkpt lat="43.82243" lon="6.73655">
        <ele>1097.1</ele>
      </trkpt>
      <trkpt lat="43.82279" lon="6.73716">
        <ele>1100.1</ele>
      </trkpt>
      <trkpt lat="43.823" lon="6.73762">
        <ele>1096.3</ele>
      </trkpt>
      <trkpt lat="43.82306" lon="6.73797">
        <ele>1095.1</ele>
      </trkpt>
      <trkpt lat="43.82318" lon="6.73874">
        <ele>1089.3</ele>
      </trkpt>
      <trkpt lat="43.82323" lon="6.73901">
        <ele>1088.5</ele>
      </trkpt>
      <trkpt lat="43.82344" lon="6.73933">
        <ele>1088</ele>
      </trkpt>
      <trkpt lat="43.82393" lon="6.73981">
        <ele>1087.2</ele>
      </trkpt>
      <trkpt lat="43.82416" lon="6.74016">
        <ele>1083.8</ele>
      </trkpt>
      <trkpt lat="43.82444" lon="6.74075">
        <ele>1084.7</ele>
      </trkpt>
      <trkpt lat="43.8248" lon="6.7414">
        <ele>1081.5</ele>
      </trkpt>
      <trkpt lat="43.82497" lon="6.74156">
        <ele>1081.3</ele>
      </trkpt>
      <trkpt lat="43.82521" lon="6.74165">
        <ele>1080.4</ele>
      </trkpt>
      <trkpt lat="43.82573" lon="6.74156">
        <ele>1077</ele>
      </trkpt>
      <trkpt lat="43.82664" lon="6.7412">
        <ele>1074.8</ele>
      </trkpt>
    </trkseg>
  </trk>
</gpx>